| time (UTC) | temp F | wind direction | speed MPH | gust MPH | rain 1hr in | rain 24hr in | rain mn in | humidity % | barometer mb |
| 20260505114313 | 50 | 16 | 3.0 | 9.0 | 1.99 | 8.74 | 7.60 | 79 | 1009.7 |
| 20260505114205 | 50 | 62 | 2.0 | 9.0 | 2.02 | 8.71 | 7.57 | 79 | 1009.7 |
| 20260505114129 | 50 | 60 | 3.0 | 9.0 | 2.07 | 8.68 | 7.54 | 78 | 1009.7 |
| 20260505114003 | 50 | 66 | 3.0 | 9.0 | 2.07 | 8.63 | 7.49 | 78 | 1009.8 |
| 20260505113907 | 50 | 40 | 2.0 | 6.0 | 2.04 | 8.59 | 7.46 | 79 | 1009.9 |
| 20260505113806 | 50 | 53 | 1.0 | 6.0 | 2.08 | 8.57 | 7.43 | 78 | 1010.0 |
| 20260505113709 | 50 | 54 | 1.0 | 8.0 | 2.14 | 8.57 | 7.43 | 77 | 1010.0 |
| 20260505113604 | 50 | 74 | 0.0 | 8.0 | 2.18 | 8.57 | 7.43 | 77 | 1010.1 |
| 20260505113459 | 50 | 37 | 1.0 | 8.0 | 2.23 | 8.56 | 7.42 | 77 | 1010.0 |
| 20260505113403 | 50 | 42 | 2.0 | 8.0 | 2.25 | 8.52 | 7.38 | 77 | 1009.9 |
| 20260505113319 | 50 | 36 | 2.0 | 8.0 | 2.30 | 8.50 | 7.36 | 77 | 1009.9 |
| 20260505113242 | 50 | 62 | 2.0 | 8.0 | 2.32 | 8.50 | 7.36 | 78 | 1009.8 |
| 20260505113145 | 50 | 41 | 3.0 | 8.0 | 2.32 | 8.50 | 7.36 | 77 | 1009.8 |
| 20260505113106 | 49 | 58 | 3.0 | 8.0 | 2.37 | 8.50 | 7.36 | 77 | 1009.7 |
| 20260505113005 | 50 | 68 | 3.0 | 8.0 | 2.44 | 8.50 | 7.36 | 77 | 1009.7 |
| 20260505112858 | 50 | 63 | 3.0 | 8.0 | 2.48 | 8.50 | 7.36 | 77 | 1009.5 |
| 20260505112823 | 50 | 6 | 3.0 | 8.0 | 2.46 | 8.49 | 7.35 | 77 | 1009.5 |
| 20260505112717 | 50 | 11 | 3.0 | 8.0 | 2.43 | 8.38 | 7.24 | 77 | 1009.5 |
| 20260505112620 | 50 | 76 | 3.0 | 6.0 | 2.46 | 8.35 | 7.21 | 77 | 1009.5 |
| 20260505112515 | 50 | 55 | 3.0 | 6.0 | 2.38 | 8.25 | 7.11 | 78 | 1009.6 |
| 20260505112440 | 50 | 68 | 2.0 | 5.0 | 2.38 | 8.20 | 7.06 | 79 | 1009.6 |
| 20260505112257 | 50 | 51 | 1.0 | 7.0 | 2.39 | 8.14 | 7.00 | 78 | 1009.7 |
| 20260505112212 | 50 | 63 | 1.0 | 7.0 | 2.37 | 8.08 | 6.99 | 78 | 1009.7 |
| 20260505112116 | 50 | 51 | 0.0 | 7.0 | 2.38 | 8.03 | 6.89 | 78 | 1009.6 |
| 20260505112011 | 50 | 57 | 0.0 | 9.0 | 2.42 | 7.99 | 6.85 | 78 | 1009.6 |
| 20260505111906 | 50 | 57 | 1.0 | 10.0 | 2.48 | 7.99 | 6.85 | 78 | 1009.4 |
| 20260505111810 | 50 | 15 | 1.0 | 10.0 | 2.50 | 7.99 | 6.85 | 78 | 1009.4 |
| 20260505111705 | 50 | 328 | 2.0 | 10.0 | 2.51 | 7.94 | 6.82 | 77 | 1009.2 |
| 20260505111624 | 49 | 66 | 2.0 | 12.0 | 2.48 | 7.90 | 6.76 | 77 | 1009.2 |
| 20260505111603 | 50 | 84 | 3.0 | 12.0 | 2.51 | 7.89 | 6.76 | 77 | 1009.1 |
| 20260505111507 | 50 | 72 | 4.0 | 12.0 | 2.51 | 7.87 | 6.73 | 77 | 1009.0 |
| 20260505111402 | 50 | 77 | 5.0 | 12.0 | 2.48 | 7.81 | 6.67 | 77 | 1009.0 |
| 20260505111257 | 50 | 25 | 5.0 | 12.0 | 2.41 | 7.71 | 6.57 | 77 | 1009.0 |
| 20260505111221 | 50 | 51 | 4.0 | 12.0 | 2.41 | 7.68 | 6.54 | 77 | 1009.0 |
| 20260505111124 | 50 | 62 | 5.0 | 12.0 | 2.39 | 7.66 | 6.52 | 77 | 1009.0 |
| 20260505110959 | 50 | 14 | 4.0 | 12.0 | 2.38 | 7.57 | 6.43 | 77 | 1009.0 |
| 20260505110858 | 50 | 54 | 6.0 | 12.0 | 2.39 | 7.55 | 6.41 | 77 | 1009.0 |
| 20260505110822 | 50 | 83 | 6.0 | 12.0 | 2.37 | 7.53 | 6.39 | 77 | 1009.0 |
| 20260505110656 | 50 | 88 | 5.0 | 12.0 | 2.29 | 7.45 | 6.31 | 78 | 1009.0 |
| 20260505110611 | 50 | 91 | 4.0 | 12.0 | 2.29 | 7.41 | 6.27 | 78 | 1009.0 |
| 20260505110536 | 50 | 79 | 4.0 | 12.0 | 2.34 | 7.39 | 6.25 | 78 | 1009.0 |
| 20260505110439 | 50 | 120 | 6.0 | 12.0 | 2.35 | 7.39 | 6.25 | 78 | 1008.9 |
| 20260505110312 | 50 | 91 | 6.0 | 12.0 | 2.35 | 7.37 | 6.23 | 78 | 1009.0 |
| 20260505110236 | 50 | 62 | 4.0 | 11.0 | 2.36 | 7.34 | 6.20 | 79 | 1008.9 |
| 20260505110153 | 49 | 58 | 3.0 | 11.0 | 2.33 | 7.31 | 6.17 | 79 | 1008.9 |
| 20260505110121 | 50 | 61 | 3.0 | 11.0 | 2.31 | 7.29 | 6.15 | 79 | 1008.9 |
| 20260505102205 | 50 | 29 | 4.0 | 8.0 | 1.57 | 5.70 | 4.56 | 77 | 1009.4 |
| 20260505102113 | 50 | 102 | 4.0 | 8.0 | 1.52 | 5.65 | 4.51 | 77 | 1009.4 |
| 20260505102008 | 50 | 65 | 3.0 | 8.0 | 1.44 | 5.57 | 4.43 | 78 | 1009.5 |
| 20260505101903 | 50 | 40 | 3.0 | 8.0 | 1.37 | 5.50 | 4.36 | 78 | 1009.5 |
| 20260505101807 | 50 | 37 | 4.0 | 8.0 | 1.32 | 5.45 | 4.31 | 77 | 1009.4 |
| 20260505101702 | 50 | 67 | 2.0 | 6.0 | 1.26 | 5.40 | 4.26 | 79 | 1009.4 |
| 20260505101614 | 49 | 63 | 1.0 | 6.0 | 1.24 | 5.36 | 4.22 | 79 | 1009.4 |
| 20260505101557 | 50 | 66 | 2.0 | 6.0 | 1.24 | 5.36 | 4.22 | 79 | 1009.4 |
| 20260505101459 | 50 | 78 | 2.0 | 8.0 | 1.22 | 5.34 | 4.20 | 79 | 1009.4 |
| 20260505101358 | 50 | 56 | 2.0 | 8.0 | 1.20 | 5.31 | 4.17 | 79 | 1009.4 |
| 20260505101302 | 50 | 44 | 2.0 | 8.0 | 1.22 | 5.27 | 4.15 | 79 | 1009.4 |
| 20260505101157 | 50 | 57 | 2.0 | 9.0 | 1.28 | 5.27 | 4.13 | 79 | 1009.4 |
| 20260505101121 | 50 | 46 | 2.0 | 10.0 | 1.27 | 5.25 | 4.11 | 79 | 1009.4 |
| 20260505100956 | 50 | 63 | 3.0 | 10.0 | 1.25 | 5.19 | 4.05 | 79 | 1009.5 |
| 20260505100911 | 50 | 58 | 3.0 | 10.0 | 1.27 | 5.16 | 4.02 | 79 | 1009.5 |
| 20260505100835 | 50 | 34 | 3.0 | 10.0 | 1.28 | 5.15 | 4.01 | 78 | 1009.5 |
| 20260505100713 | 50 | 56 | 4.0 | 10.0 | 1.33 | 5.15 | 4.01 | 78 | 1009.5 |
| 20260505100617 | 50 | 63 | 4.0 | 10.0 | 1.33 | 5.11 | 3.97 | 78 | 1009.4 |
| 20260505100512 | 50 | 63 | 4.0 | 11.0 | 1.31 | 5.04 | 3.90 | 78 | 1009.4 |
| 20260505100407 | 50 | 64 | 5.0 | 11.0 | 1.36 | 5.02 | 3.88 | 78 | 1009.4 |
| 20260505100310 | 50 | 343 | 4.0 | 13.0 | 1.35 | 5.01 | 3.87 | 78 | 1009.4 |
| 20260505100205 | 50 | 62 | 3.0 | 13.0 | 1.36 | 4.98 | 3.84 | 78 | 1009.4 |
| 20260505100122 | 50 | 70 | 3.0 | 13.0 | 1.32 | 4.94 | 3.80 | 78 | 1009.3 |
| 20260505100047 | 49 | 33 | 3.0 | 13.0 | 1.33 | 4.91 | 3.77 | 78 | 1009.3 |
| 20260505100005 | 50 | 81 | 3.0 | 13.0 | 1.35 | 4.89 | 3.75 | 78 | 1009.3 |
| 20260505095859 | 50 | 21 | 5.0 | 13.0 | 1.33 | 4.85 | 3.71 | 78 | 1009.2 |
| 20260505095803 | 50 | 119 | 5.0 | 13.0 | 1.34 | 4.83 | 3.69 | 78 | 1009.2 |
| 20260505095657 | 50 | 80 | 5.0 | 13.0 | 1.32 | 4.80 | 3.69 | 78 | 1009.1 |
| 20260505095621 | 50 | 340 | 6.0 | 13.0 | 1.29 | 4.77 | 3.63 | 78 | 1009.0 |
| 20260505095515 | 50 | 73 | 4.0 | 12.0 | 1.23 | 4.70 | 3.56 | 78 | 1009.1 |
| 20260505095410 | 50 | 66 | 3.0 | 11.0 | 1.19 | 4.65 | 3.51 | 79 | 1009.0 |
| 20260505095317 | 50 | 39 | 3.0 | 11.0 | 1.19 | 4.62 | 3.48 | 79 | 1009.1 |
| 20260505095212 | 50 | 89 | 3.0 | 14.0 | 1.19 | 4.61 | 3.47 | 79 | 1009.0 |
| 20260505095107 | 50 | 129 | 3.0 | 14.0 | 1.20 | 4.60 | 3.46 | 79 | 1009.0 |
| 20260505095031 | 50 | 65 | 3.0 | 14.0 | 1.23 | 4.58 | 3.44 | 79 | 1009.0 |
| 20260505094904 | 50 | 116 | 4.0 | 14.0 | 1.25 | 4.54 | 3.40 | 78 | 1009.1 |
| 20260505094828 | 50 | 58 | 4.0 | 14.0 | 1.26 | 4.51 | 3.37 | 79 | 1009.1 |
| 20260505094702 | 50 | 70 | 4.0 | 14.0 | 1.21 | 4.45 | 3.34 | 79 | 1009.2 |
| 20260505094626 | 50 | 48 | 5.0 | 14.0 | 1.19 | 4.41 | 3.27 | 79 | 1009.2 |
| 20260505094535 | 49 | 68 | 4.0 | 14.0 | 1.16 | 4.38 | 3.24 | 79 | 1009.2 |
| 20260505094505 | 50 | 28 | 4.0 | 14.0 | 1.19 | 4.35 | 3.21 | 79 | 1009.2 |
| 20260505094428 | 50 | 30 | 3.0 | 11.0 | 1.22 | 4.31 | 3.17 | 80 | 1009.1 |
| 20260505094301 | 50 | 32 | 4.0 | 9.0 | 1.26 | 4.31 | 3.17 | 80 | 1009.2 |
| 20260505094156 | 50 | 51 | 4.0 | 9.0 | 1.28 | 4.31 | 3.17 | 80 | 1009.1 |
| 20260505094121 | 50 | 41 | 3.0 | 13.0 | 1.27 | 4.30 | 3.16 | 80 | 1009.1 |
| 20260505094045 | 50 | 25 | 2.0 | 13.0 | 1.29 | 4.29 | 3.16 | 80 | 1009.1 |
| 20260505093858 | 50 | 41 | 3.0 | 13.0 | 1.34 | 4.27 | 3.13 | 80 | 1009.2 |
| 20260505093757 | 50 | 68 | 2.0 | 13.0 | 1.38 | 4.25 | 3.11 | 80 | 1009.2 |
| 20260505093722 | 50 | 68 | 2.0 | 13.0 | 1.38 | 4.25 | 3.11 | 80 | 1009.1 |
| 20260505093645 | 50 | 352 | 3.0 | 13.0 | 1.39 | 4.25 | 3.11 | 80 | 1009.1 |
| 20260505093519 | 50 | 91 | 3.0 | 13.0 | 1.49 | 4.25 | 3.11 | 80 | 1009.1 |
| 20260505093413 | 50 | 49 | 4.0 | 13.0 | 1.50 | 4.25 | 3.11 | 79 | 1009.1 |
| 20260505093309 | 50 | 48 | 4.0 | 13.0 | 1.52 | 4.24 | 3.10 | 80 | 1009.1 |
| 20260505093213 | 50 | 84 | 4.0 | 10.0 | 1.51 | 4.22 | 3.08 | 80 | 1009.1 |
| 20260505093139 | 49 | 72 | 5.0 | 10.0 | 1.49 | 4.20 | 3.06 | 80 | 1009.1 |
| 20260505093107 | 50 | 63 | 4.0 | 10.0 | 1.47 | 4.17 | 3.03 | 80 | 1009.0 |
| 20260505093017 | 50 | 62 | 3.0 | 11.0 | 1.49 | 4.15 | 3.01 | 81 | 1009.0 |
| 20260505092911 | 50 | 30 | 3.0 | 11.0 | 1.51 | 4.15 | 3.01 | 80 | 1009.0 |
| 20260505092834 | 49 | 65 | 3.0 | 11.0 | 1.54 | 4.14 | 3.00 | 81 | 1008.9 |
| 20260505092708 | 50 | 3 | 2.0 | 11.0 | 1.57 | 4.13 | 2.99 | 81 | 1008.8 |
| 20260505092603 | 50 | 31 | 3.0 | 11.0 | 1.58 | 4.13 | 2.99 | 81 | 1008.8 |
| 20260505092458 | 50 | 16 | 4.0 | 11.0 | 1.61 | 4.13 | 2.99 | 80 | 1008.7 |
| 20260505092402 | 49 | 26 | 5.0 | 11.0 | 1.62 | 4.13 | 2.99 | 80 | 1008.5 |
| 20260505092310 | 49 | 93 | 6.0 | 11.0 | 1.62 | 4.13 | 2.99 | 80 | 1008.6 |
| 20260505092224 | 49 | 63 | 4.0 | 11.0 | 1.63 | 4.13 | 2.99 | 80 | 1008.5 |
| 20260505092127 | 49 | 75 | 3.0 | 10.0 | 1.69 | 4.13 | 2.99 | 81 | 1008.5 |
| 20260505092001 | 49 | 40 | 4.0 | 10.0 | 1.70 | 4.13 | 2.99 | 81 | 1008.5 |
| 20260505091906 | 49 | 56 | 3.0 | 10.0 | 1.70 | 4.13 | 2.99 | 81 | 1008.4 |
| 20260505091800 | 49 | 34 | 4.0 | 9.0 | 1.74 | 4.13 | 2.99 | 81 | 1008.3 |
| 20260505091715 | 49 | 78 | 3.0 | 9.0 | 1.76 | 4.13 | 2.99 | 82 | 1008.4 |
| 20260505091618 | 49 | 342 | 3.0 | 13.0 | 1.78 | 4.12 | 2.98 | 82 | 1008.3 |
| 20260505091524 | 49 | 26 | 3.0 | 13.0 | 1.78 | 4.12 | 2.98 | 82 | 1008.3 |
| 20260505091456 | 49 | 1 | 3.0 | 13.0 | 1.80 | 4.12 | 2.98 | 82 | 1008.4 |
| 20260505091420 | 49 | 57 | 2.0 | 13.0 | 1.83 | 4.11 | 2.97 | 82 | 1008.3 |
| 20260505091315 | 49 | 50 | 2.0 | 13.0 | 1.80 | 4.05 | 2.91 | 82 | 1008.4 |
| 20260505091210 | 49 | 65 | 4.0 | 13.0 | 1.76 | 3.98 | 2.84 | 82 | 1008.3 |
| 20260505091114 | 49 | 72 | 3.0 | 13.0 | 1.75 | 3.95 | 2.81 | 83 | 1008.3 |
| 20260505091009 | 49 | 74 | 4.0 | 13.0 | 1.76 | 3.91 | 2.79 | 83 | 1008.3 |
| 20260505090904 | 49 | 77 | 7.0 | 13.0 | 1.79 | 3.88 | 2.74 | 83 | 1008.3 |
| 20260505090812 | 49 | 54 | 5.0 | 13.0 | 1.79 | 3.85 | 2.71 | 83 | 1008.3 |
| 20260505090707 | 49 | 50 | 4.0 | 10.0 | 1.75 | 3.81 | 2.67 | 84 | 1008.4 |
| 20260505090602 | 49 | 75 | 5.0 | 10.0 | 1.73 | 3.77 | 2.63 | 85 | 1008.3 |
| 20260505090507 | 49 | 46 | 5.0 | 10.0 | 1.73 | 3.73 | 2.59 | 85 | 1008.3 |
| 20260505090421 | 49 | 63 | 5.0 | 10.0 | 1.70 | 3.66 | 2.52 | 85 | 1008.2 |
| 20260505090304 | 49 | 63 | 4.0 | 10.0 | 1.72 | 3.64 | 2.50 | 86 | 1008.2 |
| 20260505090159 | 49 | 8 | 3.0 | 10.0 | 1.70 | 3.60 | 2.46 | 86 | 1008.2 |
| 20260505090135 | 49 | 77 | 4.0 | 10.0 | 1.71 | 3.58 | 2.44 | 85 | 1008.2 |
| 20260505090014 | 48 | 356 | 3.0 | 10.0 | 1.68 | 3.53 | 2.39 | 86 | 1008.2 |
| 20260505085958 | 49 | 70 | 4.0 | 10.0 | 1.66 | 3.52 | 2.38 | 86 | 1008.2 |
| 20260505085900 | 49 | 60 | 4.0 | 10.0 | 1.71 | 3.52 | 2.38 | 86 | 1008.1 |
| 20260505085815 | 49 | 66 | 4.0 | 10.0 | 1.74 | 3.49 | 2.35 | 86 | 1007.9 |
| 20260505085719 | 49 | 71 | 3.0 | 9.0 | 1.76 | 3.47 | 2.33 | 86 | 1007.9 |
| 20260505085613 | 49 | 32 | 3.0 | 12.0 | 1.76 | 3.47 | 2.33 | 86 | 1007.8 |
| 20260505085517 | 49 | 53 | 3.0 | 12.0 | 1.80 | 3.47 | 2.33 | 86 | 1007.8 |
| 20260505085411 | 49 | 59 | 4.0 | 12.0 | 1.81 | 3.45 | 2.31 | 86 | 1007.8 |
| 20260505085335 | 49 | 23 | 3.0 | 12.0 | 1.78 | 3.42 | 2.28 | 86 | 1007.7 |
| 20260505085212 | 49 | 39 | 3.0 | 12.0 | 1.79 | 3.41 | 2.27 | 86 | 1007.7 |
| 20260505085107 | 49 | 30 | 3.0 | 12.0 | 1.79 | 3.37 | 2.23 | 86 | 1007.6 |
| 20260505085011 | 49 | 255 | 4.0 | 12.0 | 1.78 | 3.34 | 2.20 | 86 | 1007.5 |
| 20260505084906 | 49 | 358 | 7.0 | 12.0 | 1.73 | 3.29 | 2.15 | 86 | 1007.5 |
| 20260505084801 | 49 | 39 | 7.0 | 12.0 | 1.71 | 3.25 | 2.11 | 86 | 1007.5 |
| 20260505084705 | 49 | 27 | 4.0 | 11.0 | 1.70 | 3.22 | 2.08 | 86 | 1007.5 |
| 20260505084604 | 49 | 29 | 5.0 | 10.0 | 1.72 | 3.19 | 2.08 | 86 | 1007.5 |
| 20260505084526 | 48 | 28 | 4.0 | 10.0 | 1.69 | 3.16 | 2.02 | 87 | 1007.5 |
| 20260505084459 | 49 | 42 | 5.0 | 10.0 | 1.66 | 3.13 | 1.99 | 87 | 1007.4 |
| 20260505084403 | 49 | 82 | 4.0 | 10.0 | 1.62 | 3.09 | 1.95 | 87 | 1007.3 |
| 20260505084318 | 49 | 36 | 4.0 | 15.0 | 1.57 | 3.03 | 1.89 | 87 | 1007.3 |
| 20260505084201 | 49 | 62 | 3.0 | 15.0 | 1.57 | 3.03 | 1.89 | 87 | 1007.2 |
| 20260505084056 | 49 | 57 | 2.0 | 15.0 | 1.58 | 2.99 | 1.85 | 87 | 1007.1 |
| 20260505084020 | 49 | 27 | 2.0 | 15.0 | 1.61 | 2.99 | 1.85 | 87 | 1007.0 |
| 20260505083858 | 49 | 349 | 3.0 | 20.0 | 1.57 | 2.93 | 1.79 | 87 | 1006.8 |
| 20260505083813 | 49 | 304 | 3.0 | 20.0 | 1.55 | 2.87 | 1.73 | 87 | 1006.5 |
| 20260505083717 | 49 | 32 | 5.0 | 20.0 | 1.57 | 2.85 | 1.71 | 86 | 1006.2 |
| 20260505083611 | 49 | 22 | 5.0 | 20.0 | 1.55 | 2.81 | 1.67 | 86 | 1005.9 |
| 20260505083506 | 49 | 344 | 7.0 | 20.0 | 1.53 | 2.75 | 1.61 | 86 | 1005.9 |
| 20260505083430 | 49 | 37 | 8.0 | 20.0 | 1.53 | 2.74 | 1.60 | 86 | 1005.8 |
| 20260505083304 | 49 | 45 | 8.0 | 20.0 | 1.52 | 2.72 | 1.58 | 86 | 1005.7 |
| 20260505083228 | 49 | 14 | 9.0 | 20.0 | 1.52 | 2.70 | 1.56 | 86 | 1005.7 |
| 20260505083135 | 48 | 60 | 8.0 | 20.0 | 1.52 | 2.70 | 1.56 | 86 | 1005.7 |
| 20260505083106 | 49 | 63 | 7.0 | 20.0 | 1.54 | 2.68 | 1.54 | 87 | 1005.7 |
| 20260505083012 | 49 | 70 | 4.0 | 19.0 | 1.51 | 2.66 | 1.52 | 87 | 1005.7 |
| 20260505082906 | 49 | 64 | 5.0 | 19.0 | 1.46 | 2.60 | 1.46 | 86 | 1005.6 |
| 20260505082801 | 49 | 73 | 8.0 | 19.0 | 1.41 | 2.56 | 1.42 | 86 | 1005.6 |
| 20260505082724 | 49 | 39 | 8.0 | 19.0 | 1.41 | 2.56 | 1.42 | 86 | 1005.6 |
| 20260505082559 | 49 | 68 | 7.0 | 19.0 | 1.40 | 2.54 | 1.40 | 86 | 1005.9 |
| 20260505082514 | 49 | 103 | 7.0 | 19.0 | 1.38 | 2.52 | 1.38 | 86 | 1006.0 |
| 20260505082421 | 49 | 38 | 9.0 | 19.0 | 1.37 | 2.51 | 1.38 | 86 | 1006.0 |
| 20260505082316 | 49 | 63 | 7.0 | 19.0 | 1.37 | 2.51 | 1.37 | 86 | 1006.0 |
| 20260505082219 | 49 | 13 | 5.0 | 11.0 | 1.35 | 2.49 | 1.35 | 85 | 1005.9 |
| 20260505082113 | 49 | 57 | 6.0 | 13.0 | 1.29 | 2.43 | 1.29 | 85 | 1005.9 |
| 20260505082037 | 50 | 44 | 5.0 | 13.0 | 1.28 | 2.42 | 1.28 | 85 | 1006.2 |
| 20260505081910 | 50 | 38 | 4.0 | 13.0 | 1.28 | 2.42 | 1.28 | 85 | 1006.8 |
| 20260505081834 | 50 | 96 | 5.0 | 13.0 | 1.24 | 2.38 | 1.24 | 85 | 1007.3 |
| 20260505081708 | 50 | 67 | 4.0 | 13.0 | 1.22 | 2.36 | 1.22 | 85 | 1007.6 |
| 20260505081617 | 50 | 68 | 4.0 | 13.0 | 1.20 | 2.34 | 1.20 | 84 | 1007.8 |
| 20260505081615 | 49 | 50 | 4.0 | 13.0 | 1.20 | 2.34 | 1.20 | 84 | 1007.8 |
| 20260505081510 | 50 | 94 | 5.0 | 13.0 | 1.14 | 2.28 | 1.14 | 84 | 1008.0 |
| 20260505081405 | 50 | 64 | 5.0 | 13.0 | 1.12 | 2.26 | 1.12 | 84 | 1008.0 |
| 20260505081300 | 50 | 70 | 4.0 | 13.0 | 1.09 | 2.23 | 1.09 | 85 | 1008.1 |
| 20260505081203 | 50 | 37 | 2.0 | 9.0 | 1.07 | 2.21 | 1.08 | 85 | 1008.1 |
| 20260505081059 | 50 | 49 | 3.0 | 9.0 | 1.03 | 2.17 | 1.03 | 85 | 1008.1 |
| 20260505081023 | 50 | 49 | 4.0 | 9.0 | 1.03 | 2.17 | 1.03 | 85 | 1008.1 |
| 20260505080902 | 50 | 84 | 6.0 | 9.0 | 9.48 | 2.08 | 9.48 | 85 | 1008.3 |
| 20260505080817 | 50 | 55 | 5.0 | 9.0 | 9.24 | 2.06 | 9.24 | 85 | 1008.5 |
| 20260505080700 | 50 | 71 | 3.0 | 6.0 | 9.24 | 2.06 | 9.24 | 85 | 1008.8 |
| 20260505080614 | 50 | 50 | 2.0 | 5.0 | 9.00 | 2.04 | 9.00 | 85 | 1008.8 |
| 20260505080519 | 50 | 46 | 1.0 | 4.0 | 8.59 | 1.99 | 8.59 | 85 | 1008.8 |
| 20260505080434 | 50 | 64 | 1.0 | 4.0 | 8.16 | 1.95 | 8.16 | 84 | 1008.9 |
| 20260505080316 | 50 | 58 | 1.0 | 4.0 | 7.81 | 1.92 | 7.81 | 84 | 1009.0 |
| 20260505080155 | 50 | 70 | 1.0 | 4.0 | 7.44 | 1.88 | 7.44 | 84 | 1009.0 |
| 20260505080130 | 50 | 68 | 1.0 | 4.0 | 7.27 | 1.86 | 7.27 | 84 | 1009.0 |
| 20260505080050 | 50 | 53 | 0.0 | 6.0 | 7.16 | 1.85 | 7.16 | 84 | 1009.1 |
| 20260505080009 | 51 | 63 | 0.0 | 6.0 | 7.16 | 1.85 | 7.16 | 84 | 1009.1 |
| 20260505075903 | 51 | 58 | 1.0 | 6.0 | 6.63 | 1.80 | 6.63 | 84 | 1009.1 |
| 20260505075806 | 51 | 47 | 2.0 | 6.0 | 6.07 | 1.74 | 6.07 | 84 | 1009.1 |
| 20260505075700 | 51 | 48 | 1.0 | 6.0 | 5.74 | 1.71 | 5.74 | 84 | 1009.2 |
| 20260505075604 | 51 | 70 | 1.0 | 6.0 | 5.50 | 1.69 | 5.50 | 85 | 1009.2 |
| 20260505075500 | 51 | 49 | 1.0 | 6.0 | 5.00 | 1.64 | 5.29 | 84 | 1009.1 |
| 20260505075359 | 51 | 53 | 2.0 | 6.0 | 4.99 | 1.63 | 4.99 | 84 | 1009.2 |
| 20260505075304 | 51 | 62 | 3.0 | 6.0 | 4.79 | 1.61 | 4.79 | 84 | 1009.3 |
| 20260505075217 | 51 | 58 | 2.0 | 6.0 | 4.62 | 1.60 | 4.62 | 84 | 1009.4 |
| 20260505075100 | 51 | 60 | 0.0 | 4.0 | 4.38 | 1.57 | 4.38 | 85 | 1009.5 |
| 20260505074955 | 51 | 57 | 0.0 | 3.0 | 4.29 | 1.56 | 4.29 | 84 | 1009.6 |
| 20260505074920 | 51 | 50 | 0.0 | 3.0 | 4.14 | 1.55 | 4.14 | 84 | 1009.8 |
| 20260505074812 | 51 | 69 | 0.0 | 5.0 | 3.94 | 1.53 | 3.94 | 84 | 1009.9 |
| 20260505074711 | 51 | 56 | 0.0 | 5.0 | 3.43 | 1.48 | 3.43 | 84 | 1010.0 |
| 20260505074615 | 51 | 56 | 1.0 | 5.0 | 3.29 | 1.46 | 3.29 | 83 | 1010.0 |
| 20260505074538 | 51 | 56 | 1.0 | 5.0 | 3.29 | 1.46 | 3.29 | 83 | 1010.0 |
| 20260505074412 | 51 | 30 | 1.0 | 5.0 | 3.26 | 1.46 | 3.26 | 82 | 1010.0 |
| 20260505074307 | 52 | 32 | 1.0 | 9.0 | 3.23 | 1.46 | 3.23 | 82 | 1010.0 |
| 20260505074202 | 52 | 58 | 0.0 | 9.0 | 2.88 | 1.42 | 2.88 | 82 | 1010.0 |
| 20260505074106 | 52 | 51 | 1.0 | 9.0 | 2.55 | 1.39 | 2.55 | 82 | 1009.9 |
| 20260505074001 | 52 | 359 | 1.0 | 9.0 | 2.44 | 1.38 | 2.44 | 82 | 1010.0 |
| 20260505073859 | 52 | 327 | 2.0 | 9.0 | 1.90 | 1.33 | 1.90 | 81 | 1010.0 |
| 20260505073822 | 52 | 44 | 2.0 | 9.0 | 1.51 | 1.29 | 1.51 | 80 | 1010.0 |
| 20260505073704 | 52 | 320 | 3.0 | 9.0 | 1.38 | 1.27 | 1.38 | 80 | 1009.9 |
| 20260505073558 | 52 | 26 | 5.0 | 9.0 | 1.11 | 1.25 | 1.11 | 79 | 1009.9 |
| 20260505073504 | 53 | 311 | 5.0 | 9.0 | 0.78 | 1.21 | 0.78 | 80 | 1009.8 |
| 20260505073417 | 53 | 295 | 5.0 | 9.0 | 0.67 | 1.20 | 0.67 | 80 | 1009.6 |
| 20260505073341 | 53 | 351 | 5.0 | 9.0 | 0.67 | 1.20 | 0.67 | 80 | 1009.6 |
| 20260505073244 | 53 | 351 | 5.0 | 9.0 | 0.38 | 1.17 | 0.38 | 80 | 1009.6 |
| 20260505073102 | 53 | 329 | 5.0 | 9.0 | 0.04 | 1.14 | 0.04 | 80 | 1009.4 |
| 20260505073048 | 53 | 16 | 4.0 | 9.0 | 0.04 | 1.14 | 0.04 | 80 | 1009.4 |
| 20260505072959 | 53 | 285 | 5.0 | 8.0 | 0.03 | 1.14 | 0.03 | 80 | 1009.4 |
| 20260505072922 | 53 | 8 | 5.0 | 8.0 | 0.03 | 1.14 | 0.03 | 80 | 1009.3 |
| 20260505072817 | 53 | 352 | 5.0 | 8.0 | 0.02 | 1.14 | 0.02 | 80 | 1009.1 |
| 20260505072741 | 54 | 314 | 4.0 | 6.0 | 0.01 | 1.14 | 0.01 | 80 | 1009.1 |
| 20260505072614 | 54 | 323 | 3.0 | 5.0 | 0.00 | 1.14 | 0.00 | 80 | 1009.0 |
| 20260505072509 | 54 | 335 | 2.0 | 5.0 | 0.00 | 1.14 | 0.00 | 80 | 1009.0 |
| 20260505072412 | 54 | 333 | 3.0 | 5.0 | 0.00 | 1.14 | 0.00 | 79 | 1009.0 |
| 20260505072311 | 54 | 331 | 3.0 | 5.0 | 0.00 | 1.14 | 0.00 | 79 | 1008.9 |
| 20260505072206 | 55 | 9 | 2.0 | 5.0 | 0.00 | 1.14 | 0.00 | 79 | 1008.9 |
| 20260505072110 | 55 | 308 | 2.0 | 5.0 | 0.00 | 1.14 | 0.00 | 78 | 1008.9 |
| 20260505072005 | 55 | 328 | 2.0 | 5.0 | 0.00 | 1.14 | 0.00 | 80 | 1008.9 |
| 20260505071900 | 55 | 338 | 1.0 | 4.0 | 0.00 | 1.14 | 0.00 | 80 | 1008.7 |
| 20260505071755 | 55 | 299 | 1.0 | 8.0 | 0.00 | 1.14 | 0.00 | 80 | 1008.5 |
| 20260505071703 | 55 | 303 | 0.0 | 8.0 | 0.00 | 1.14 | 0.00 | 76 | 1008.4 |
| 20260505071629 | 55 | 309 | 0.0 | 8.0 | 0.00 | 1.14 | 0.00 | 77 | 1008.4 |
| 20260505071558 | 55 | 297 | 0.0 | 8.0 | 0.00 | 1.14 | 0.00 | 77 | 1008.1 |
| 20260505071523 | 55 | 3 | 0.0 | 8.0 | 0.00 | 1.14 | 0.00 | 77 | 1008.1 |
| 20260505071417 | 55 | 29 | 0.0 | 8.0 | 0.00 | 1.14 | 0.00 | 76 | 1007.9 |
| 20260505071320 | 56 | 27 | 0.0 | 8.0 | 0.00 | 1.14 | 0.00 | 76 | 1007.7 |
| 20260505071215 | 56 | 47 | 0.0 | 8.0 | 0.00 | 1.14 | 0.00 | 76 | 1007.6 |
| 20260505071140 | 56 | 66 | 2.0 | 8.0 | 0.00 | 1.14 | 0.00 | 74 | 1007.6 |
| 20260505071013 | 56 | 51 | 4.0 | 8.0 | 0.00 | 1.14 | 0.00 | 74 | 1007.5 |
| 20260505070921 | 56 | 80 | 3.0 | 8.0 | 0.00 | 1.14 | 0.00 | 74 | 1007.5 |
| 20260505070756 | 56 | 69 | 2.0 | 6.0 | 0.00 | 1.14 | 0.00 | 75 | 1007.4 |
| 20260505070710 | 56 | 51 | 2.0 | 6.0 | 0.00 | 1.14 | 0.00 | 73 | 1007.4 |
| 20260505070603 | 56 | 97 | 3.0 | 5.0 | 0.00 | 1.14 | 0.00 | 75 | 1007.4 |
| 20260505070507 | 56 | 62 | 3.0 | 6.0 | 0.00 | 1.14 | 0.00 | 74 | 1007.4 |
| 20260505070400 | 56 | 84 | 2.0 | 6.0 | 0.00 | 1.14 | 0.00 | 76 | 1007.5 |
| 20260505070304 | 56 | 70 | 0.0 | 6.0 | 0.00 | 1.14 | 0.00 | 76 | 1007.6 |
| 20260505070203 | 57 | 52 | 1.0 | 6.0 | 0.00 | 1.14 | 0.00 | 76 | 1007.7 |
| 20260505070140 | 57 | 49 | 1.0 | 6.0 | 0.00 | 1.14 | 0.00 | 75 | 1007.8 |
| 20260505070013 | 56 | 101 | 0.0 | 6.0 | 0.00 | 1.14 | 0.00 | 76 | 1007.8 |
| 20260505065957 | 57 | 29 | 1.0 | 6.0 | 0.00 | 1.14 | 0.00 | 76 | 1007.8 |
| 20260505065900 | 57 | 45 | 1.0 | 6.0 | 0.00 | 1.14 | 0.00 | 76 | 1007.8 |
| 20260505065755 | 57 | 68 | 2.0 | 6.0 | 0.00 | 1.14 | 0.00 | 74 | 1007.9 |
| 20260505065719 | 57 | 293 | 3.0 | 6.0 | 0.00 | 1.14 | 0.00 | 74 | 1008.0 |
| 20260505065614 | 57 | 326 | 3.0 | 6.0 | 0.00 | 1.14 | 0.00 | 77 | 1008.1 |
| 20260505065509 | 57 | 336 | 3.0 | 5.0 | 0.00 | 1.14 | 0.00 | 78 | 1008.0 |
| 20260505065417 | 57 | 294 | 1.0 | 5.0 | 0.00 | 1.14 | 0.00 | 79 | 1008.1 |
| 20260505065312 | 57 | 358 | 0.0 | 3.0 | 0.00 | 1.14 | 0.00 | 80 | 1008.0 |
| 20260505065207 | 57 | 320 | 0.0 | 0.0 | 0.00 | 1.14 | 0.00 | 79 | 1007.9 |
| 20260505065111 | 57 | 307 | 0.0 | 0.0 | 0.00 | 1.14 | 0.00 | 80 | 1007.8 |
| 20260505065005 | 57 | 301 | 0.0 | 1.0 | 0.00 | 1.14 | 0.00 | 82 | 1007.8 |
| 20260505064929 | 57 | 316 | 0.0 | 5.0 | 0.00 | 1.14 | 0.00 | 81 | 1007.8 |
| 20260505064803 | 57 | 316 | 0.0 | 5.0 | 0.00 | 1.14 | 0.00 | 80 | 1007.9 |
| 20260505064711 | 57 | 316 | 0.0 | 5.0 | 0.00 | 1.14 | 0.00 | 80 | 1007.8 |
| 20260505064606 | 57 | 322 | 0.0 | 5.0 | 0.00 | 1.14 | 0.00 | 81 | 1007.7 |
| 20260505064525 | 57 | 68 | 0.0 | 5.0 | 0.00 | 1.14 | 0.00 | 80 | 1007.5 |
| 20260505064500 | 58 | 68 | 0.0 | 5.0 | 0.00 | 1.14 | 0.00 | 79 | 1007.5 |
| 20260505064424 | 58 | 68 | 0.0 | 5.0 | 0.00 | 1.14 | 0.00 | 78 | 1007.4 |
| 20260505064258 | 58 | 68 | 0.0 | 5.0 | 0.00 | 1.14 | 0.00 | 77 | 1007.2 |
| 20260505064222 | 58 | 68 | 1.0 | 5.0 | 0.00 | 1.14 | 0.00 | 78 | 1007.0 |
| 20260505064056 | 58 | 29 | 1.0 | 5.0 | 0.00 | 1.14 | 0.00 | 79 | 1007.0 |
| 20260505064000 | 58 | 60 | 0.0 | 0.0 | 0.00 | 1.14 | 0.00 | 79 | 1006.9 |
| 20260505063919 | 58 | 11 | 0.0 | 0.0 | 0.00 | 1.14 | 0.00 | 79 | 1006.8 |
| 20260505063822 | 58 | 11 | 0.0 | 5.0 | 0.00 | 1.14 | 0.00 | 79 | 1006.8 |
| 20260505063656 | 58 | 42 | 0.0 | 5.0 | 0.00 | 1.14 | 0.00 | 80 | 1006.7 |
| 20260505063558 | 58 | 344 | 0.0 | 5.0 | 0.00 | 1.14 | 0.00 | 80 | 1006.7 |
| 20260505063522 | 58 | 84 | 0.0 | 5.0 | 0.00 | 1.14 | 0.00 | 79 | 1006.7 |
| 20260505063357 | 59 | 19 | 0.0 | 5.0 | 0.00 | 1.14 | 0.00 | 79 | 1006.6 |
| 20260505063312 | 59 | 18 | 0.0 | 5.0 | 0.00 | 1.14 | 0.00 | 79 | 1006.6 |
| 20260505063216 | 59 | 60 | 0.0 | 5.0 | 0.00 | 1.14 | 0.00 | 78 | 1006.6 |
| 20260505063131 | 58 | 62 | 0.0 | 5.0 | 0.00 | 1.14 | 0.00 | 78 | 1006.6 |
| 20260505063110 | 59 | 45 | 0.0 | 5.0 | 0.00 | 1.14 | 0.00 | 78 | 1006.6 |
| 20260505063020 | 59 | 67 | 1.0 | 5.0 | 0.00 | 1.14 | 0.00 | 78 | 1006.6 |
| 20260505062913 | 59 | 33 | 1.0 | 5.0 | 0.00 | 1.14 | 0.00 | 77 | 1006.6 |
| 20260505062815 | 59 | 54 | 1.0 | 5.0 | 0.00 | 1.14 | 0.00 | 76 | 1006.6 |
| 20260505062730 | 60 | 34 | 1.0 | 5.0 | 0.00 | 1.14 | 0.00 | 74 | 1006.5 |
| 20260505062613 | 60 | 38 | 1.0 | 5.0 | 0.00 | 1.14 | 0.00 | 75 | 1006.6 |
| 20260505062508 | 60 | 16 | 1.0 | 5.0 | 0.00 | 1.14 | 0.00 | 75 | 1006.7 |
| 20260505062403 | 60 | 320 | 2.0 | 5.0 | 0.00 | 1.14 | 0.00 | 74 | 1006.8 |
| 20260505062311 | 60 | 342 | 2.0 | 5.0 | 0.00 | 1.14 | 0.00 | 73 | 1006.9 |
| 20260505062206 | 60 | 314 | 0.0 | 3.0 | 0.00 | 1.14 | 0.00 | 75 | 1006.9 |
| 20260505062101 | 60 | 293 | 0.0 | 4.0 | 0.00 | 1.14 | 0.00 | 74 | 1006.9 |
| 20260505062005 | 60 | 320 | 0.0 | 4.0 | 0.00 | 1.14 | 0.00 | 74 | 1006.9 |
| 20260505061900 | 60 | 324 | 0.0 | 4.0 | 0.00 | 1.14 | 0.00 | 74 | 1006.8 |
| 20260505061824 | 60 | 325 | 1.0 | 4.0 | 0.00 | 1.14 | 0.00 | 74 | 1006.8 |
| 20260505061659 | 60 | 324 | 0.0 | 4.0 | 0.00 | 1.14 | 0.00 | 73 | 1006.7 |
| 20260505061640 | 60 | 325 | 0.0 | 4.0 | 0.00 | 1.14 | 0.00 | 73 | 1006.7 |
| 20260505061618 | 61 | 280 | 0.0 | 4.0 | 0.00 | 1.14 | 0.00 | 73 | 1006.5 |
| 20260505061521 | 61 | 319 | 0.0 | 6.0 | 0.00 | 1.14 | 0.00 | 73 | 1006.3 |
| 20260505061424 | 61 | 309 | 0.0 | 6.0 | 0.00 | 1.14 | 0.00 | 73 | 1006.3 |
| 20260505061318 | 61 | 51 | 1.0 | 6.0 | 0.00 | 1.14 | 0.00 | 72 | 1006.1 |
| 20260505061221 | 61 | 51 | 1.0 | 6.0 | 0.00 | 1.14 | 0.00 | 72 | 1006.1 |
| 20260505061124 | 61 | 46 | 0.0 | 9.0 | 0.00 | 1.14 | 0.00 | 72 | 1006.1 |
| 20260505061019 | 61 | 321 | 0.0 | 9.0 | 0.00 | 1.14 | 0.00 | 71 | 1005.9 |
| 20260505060922 | 61 | 339 | 0.0 | 9.0 | 0.00 | 1.14 | 0.00 | 71 | 1005.8 |
| 20260505060756 | 61 | 317 | 2.0 | 9.0 | 0.00 | 1.14 | 0.00 | 71 | 1005.7 |
| 20260505060720 | 61 | 56 | 2.0 | 9.0 | 0.00 | 1.14 | 0.00 | 71 | 1005.8 |
| 20260505060558 | 61 | 60 | 0.0 | 9.0 | 0.00 | 1.14 | 0.00 | 71 | 1005.7 |
| 20260505060522 | 61 | 30 | 0.0 | 9.0 | 0.00 | 1.14 | 0.00 | 70 | 1005.7 |
| 20260505060417 | 61 | 337 | 1.0 | 9.0 | 0.00 | 1.14 | 0.00 | 70 | 1005.7 |
| 20260505060340 | 61 | 32 | 1.0 | 9.0 | 0.00 | 1.14 | 0.00 | 69 | 1005.6 |
| 20260505060213 | 61 | 33 | 0.0 | 9.0 | 0.00 | 1.14 | 0.00 | 69 | 1005.5 |
| 20260505060129 | 61 | 39 | 0.0 | 9.0 | 0.00 | 1.14 | 0.00 | 69 | 1005.5 |
| 20260505060052 | 60 | 18 | 0.0 | 9.0 | 0.00 | 1.14 | 0.00 | 69 | 1005.5 |
| 20260505060008 | 61 | 62 | 1.0 | 9.0 | 0.00 | 1.14 | 0.00 | 69 | 1005.3 |
| 20260505055902 | 61 | 349 | 2.0 | 9.0 | 0.00 | 1.14 | 0.00 | 69 | 1005.4 |
| 20260505055810 | 61 | 59 | 3.0 | 9.0 | 0.00 | 1.14 | 0.00 | 68 | 1005.4 |
| 20260505055725 | 61 | 68 | 1.0 | 9.0 | 0.00 | 1.14 | 0.00 | 69 | 1005.4 |
| 20260505055608 | 61 | 55 | 3.0 | 9.0 | 0.00 | 1.14 | 0.00 | 68 | 1005.4 |
| 20260505055502 | 61 | 52 | 5.0 | 9.0 | 0.00 | 1.14 | 0.00 | 68 | 1005.4 |
| 20260505055427 | 61 | 77 | 2.0 | 8.0 | 0.00 | 1.14 | 0.00 | 68 | 1005.4 |
| 20260505055301 | 61 | 78 | 1.0 | 6.0 | 0.00 | 1.14 | 0.00 | 69 | 1005.3 |
| 20260505055156 | 61 | 38 | 2.0 | 6.0 | 0.00 | 1.14 | 0.00 | 69 | 1005.4 |
| 20260505055119 | 61 | 65 | 2.0 | 6.0 | 0.00 | 1.14 | 0.00 | 69 | 1005.4 |
| 20260505055026 | 61 | 37 | 1.0 | 6.0 | 0.00 | 1.14 | 0.00 | 69 | 1005.3 |
| 20260505054900 | 61 | 42 | 0.0 | 6.0 | 0.00 | 1.14 | 0.00 | 70 | 1005.3 |
| 20260505054824 | 61 | 79 | 2.0 | 16.0 | 0.00 | 1.14 | 0.00 | 69 | 1005.3 |
| 20260505054658 | 61 | 50 | 3.0 | 16.0 | 0.00 | 1.14 | 0.00 | 69 | 1005.3 |
| 20260505054623 | 61 | 44 | 2.0 | 16.0 | 0.00 | 1.14 | 0.00 | 69 | 1005.3 |
| 20260505054603 | 60 | 60 | 1.0 | 19.0 | 0.00 | 1.14 | 0.00 | 68 | 1005.2 |
| 20260505054458 | 61 | 53 | 0.0 | 19.0 | 0.00 | 1.14 | 0.00 | 69 | 1005.3 |
| 20260505054413 | 61 | 30 | 1.0 | 19.0 | 0.00 | 1.14 | 0.00 | 68 | 1005.3 |
| 20260505054317 | 61 | 39 | 2.0 | 19.0 | 0.00 | 1.14 | 0.00 | 69 | 1005.3 |
| 20260505054216 | 61 | 58 | 3.0 | 19.0 | 0.00 | 1.14 | 0.00 | 69 | 1005.2 |
| 20260505054139 | 61 | 49 | 6.0 | 20.0 | 0.00 | 1.14 | 0.00 | 68 | 1005.2 |
| 20260505054013 | 61 | 35 | 7.0 | 20.0 | 0.00 | 1.14 | 0.00 | 68 | 1005.2 |
| 20260505053908 | 61 | 38 | 8.0 | 20.0 | 0.00 | 1.14 | 0.00 | 68 | 1005.2 |
| 20260505053832 | 61 | 67 | 7.0 | 20.0 | 0.00 | 1.14 | 0.00 | 69 | 1005.2 |
| 20260505053735 | 61 | 68 | 4.0 | 20.0 | 0.00 | 1.14 | 0.00 | 70 | 1005.2 |
| 20260505053609 | 62 | 64 | 8.0 | 20.0 | 0.00 | 1.14 | 0.00 | 69 | 1005.2 |
| 20260505053504 | 62 | 53 | 10.0 | 20.0 | 0.00 | 1.14 | 0.00 | 68 | 1005.2 |
| 20260505053431 | 62 | 71 | 9.0 | 20.0 | 0.00 | 1.14 | 0.00 | 68 | 1005.3 |
| 20260505053304 | 62 | 14 | 10.0 | 20.0 | 0.00 | 1.14 | 0.00 | 67 | 1005.3 |
| 20260505053209 | 63 | 84 | 6.0 | 17.0 | 0.00 | 1.14 | 0.00 | 67 | 1005.3 |
| 20260505053103 | 63 | 73 | 3.0 | 17.0 | 0.00 | 1.14 | 0.00 | 67 | 1005.2 |
| 20260505053037 | 63 | 30 | 4.0 | 17.0 | 0.00 | 1.14 | 0.00 | 66 | 1005.2 |
| 20260505052958 | 64 | 104 | 6.0 | 17.0 | 0.00 | 1.14 | 0.00 | 64 | 1005.2 |
| 20260505052924 | 64 | 350 | 6.0 | 17.0 | 0.00 | 1.14 | 0.00 | 64 | 1005.2 |
| 20260505052757 | 65 | 58 | 7.0 | 17.0 | 0.00 | 1.14 | 0.00 | 61 | 1005.2 |
| 20260505052657 | 65 | 68 | 7.0 | 17.0 | 0.00 | 1.14 | 0.00 | 60 | 1005.2 |
| 20260505052620 | 65 | 38 | 8.0 | 17.0 | 0.00 | 1.14 | 0.00 | 59 | 1005.2 |
| 20260505052514 | 66 | 16 | 9.0 | 17.0 | 0.00 | 1.14 | 0.00 | 57 | 1005.1 |
| 20260505052410 | 66 | 41 | 6.0 | 17.0 | 0.00 | 1.14 | 0.00 | 57 | 1005.1 |
| 20260505052313 | 67 | 41 | 5.0 | 15.0 | 0.00 | 1.14 | 0.00 | 55 | 1005.0 |
| 20260505052209 | 67 | 84 | 5.0 | 15.0 | 0.00 | 1.14 | 0.00 | 54 | 1005.0 |
| 20260505052133 | 68 | 266 | 6.0 | 15.0 | 0.00 | 1.14 | 0.00 | 53 | 1005.2 |
| 20260505052010 | 68 | 77 | 7.0 | 15.0 | 0.00 | 1.14 | 0.00 | 51 | 1005.3 |
| 20260505051934 | 69 | 311 | 7.0 | 15.0 | 0.00 | 1.14 | 0.00 | 50 | 1005.3 |
| 20260505051808 | 69 | 88 | 5.0 | 13.0 | 0.00 | 1.14 | 0.00 | 49 | 1005.2 |
| 20260505051703 | 69 | 245 | 4.0 | 13.0 | 0.00 | 1.14 | 0.00 | 49 | 1005.1 |
| 20260505051606 | 69 | 267 | 3.0 | 13.0 | 0.00 | 1.14 | 0.00 | 49 | 1005.0 |
| 20260505051538 | 69 | 28 | 1.0 | 13.0 | 0.00 | 1.14 | 0.00 | 49 | 1005.0 |
| 20260505051501 | 69 | 312 | 2.0 | 13.0 | 0.00 | 1.14 | 0.00 | 50 | 1004.7 |
| 20260505051425 | 70 | 345 | 4.0 | 13.0 | 0.00 | 1.14 | 0.00 | 50 | 1004.7 |
| 20260505051259 | 70 | 64 | 6.0 | 13.0 | 0.00 | 1.14 | 0.00 | 50 | 1004.5 |
| 20260505051158 | 70 | 33 | 4.0 | 13.0 | 0.00 | 1.14 | 0.00 | 52 | 1004.4 |
| 20260505051122 | 70 | 53 | 2.0 | 13.0 | 0.00 | 1.14 | 0.00 | 56 | 1004.4 |
| 20260505050956 | 70 | 300 | 1.0 | 10.0 | 0.00 | 1.14 | 0.00 | 59 | 1004.3 |
| 20260505050901 | 70 | 345 | 3.0 | 10.0 | 0.00 | 1.14 | 0.00 | 63 | 1004.2 |
| 20260505050755 | 70 | 322 | 2.0 | 10.0 | 0.00 | 1.14 | 0.00 | 64 | 1004.1 |
| 20260505050720 | 70 | 68 | 2.0 | 10.0 | 0.00 | 1.14 | 0.00 | 68 | 1004.1 |
| 20260505050614 | 70 | 32 | 0.0 | 2.0 | 0.00 | 1.14 | 0.00 | 72 | 1004.1 |
| 20260505050513 | 70 | 328 | 0.0 | 0.0 | 0.00 | 1.14 | 0.00 | 72 | 1004.1 |
| 20260505050417 | 70 | 61 | 0.0 | 1.0 | 0.00 | 1.14 | 0.00 | 73 | 1004.1 |
| 20260505050312 | 70 | 352 | 0.0 | 1.0 | 0.00 | 1.14 | 0.00 | 73 | 1004.1 |
| 20260505050236 | 70 | 290 | 0.0 | 1.0 | 0.00 | 1.14 | 0.00 | 73 | 1004.0 |
| 20260505050145 | 69 | 20 | 0.0 | 1.0 | 0.00 | 1.14 | 0.00 | 73 | 1004.0 |
| 20260505050121 | 70 | 20 | 0.0 | 1.0 | 0.00 | 1.14 | 0.00 | 73 | 1004.0 |
| 20260505041725 | 70 | 186 | 0.0 | 7.0 | 0.00 | 1.14 | 1.14 | 73 | 1003.5 |
| 20260505041628 | 70 | 249 | 0.0 | 7.0 | 0.00 | 1.14 | 1.14 | 73 | 1003.5 |
| 20260505041533 | 69 | 278 | 0.0 | 7.0 | 0.00 | 1.14 | 1.14 | 73 | 1003.5 |
| 20260505041502 | 70 | 148 | 0.0 | 7.0 | 0.00 | 1.14 | 1.14 | 73 | 1003.5 |
| 20260505041357 | 70 | 217 | 0.0 | 7.0 | 0.00 | 1.14 | 1.14 | 73 | 1003.5 |
| 20260505041301 | 70 | 231 | 1.0 | 7.0 | 0.00 | 1.14 | 1.14 | 73 | 1003.6 |
| 20260505041200 | 70 | 124 | 1.0 | 7.0 | 0.00 | 1.14 | 1.14 | 73 | 1003.5 |
| 20260505041055 | 70 | 210 | 1.0 | 7.0 | 0.00 | 1.14 | 1.14 | 73 | 1003.6 |
| 20260505040959 | 70 | 218 | 2.0 | 7.0 | 0.00 | 1.14 | 1.14 | 73 | 1003.7 |
| 20260505040914 | 70 | 215 | 1.0 | 7.0 | 0.00 | 1.14 | 1.14 | 73 | 1003.7 |
| 20260505040818 | 70 | 221 | 0.0 | 6.0 | 0.00 | 1.14 | 1.14 | 73 | 1003.8 |
| 20260505040713 | 70 | 97 | 0.0 | 5.0 | 0.00 | 1.14 | 1.14 | 73 | 1003.8 |
| 20260505040608 | 70 | 125 | 1.0 | 5.0 | 0.00 | 1.14 | 1.14 | 73 | 1003.8 |
| 20260505040516 | 70 | 84 | 1.0 | 5.0 | 0.00 | 1.14 | 1.14 | 73 | 1003.8 |
| 20260505040431 | 70 | 183 | 0.0 | 0.0 | 0.00 | 1.14 | 1.14 | 73 | 1003.8 |
| 20260505040334 | 70 | 291 | 0.0 | 0.0 | 0.00 | 1.14 | 1.14 | 73 | 1003.8 |
| 20260505040208 | 70 | 239 | 0.0 | 0.0 | 0.00 | 1.14 | 1.14 | 73 | 1003.8 |
| 20260505040123 | 70 | 142 | 0.0 | 0.0 | 0.00 | 1.14 | 1.14 | 73 | 1003.8 |
| 20260505040036 | 69 | 250 | 0.0 | 3.0 | 0.00 | 1.14 | 1.14 | 73 | 1003.8 |
| 20260505040004 | 70 | 218 | 0.0 | 5.0 | 0.00 | 1.14 | 1.14 | 73 | 1003.8 |
| 20260505035906 | 70 | 172 | 0.0 | 5.0 | 0.00 | 1.14 | 1.14 | 72 | 1003.8 |
| 20260505035801 | 70 | 219 | 0.0 | 5.0 | 0.00 | 1.14 | 1.14 | 72 | 1003.8 |
| 20260505035700 | 70 | 189 | 0.0 | 5.0 | 0.00 | 1.14 | 1.14 | 72 | 1003.8 |
| 20260505035604 | 70 | 168 | 0.0 | 5.0 | 0.00 | 1.14 | 1.14 | 72 | 1003.8 |
| 20260505035459 | 70 | 221 | 0.0 | 5.0 | 0.00 | 1.14 | 1.14 | 72 | 1003.8 |
| 20260505035423 | 70 | 161 | 0.0 | 5.0 | 0.00 | 1.14 | 1.14 | 72 | 1003.8 |
| 20260505035257 | 70 | 195 | 1.0 | 5.0 | 0.00 | 1.14 | 1.14 | 72 | 1003.8 |
| 20260505035221 | 70 | 139 | 1.0 | 5.0 | 0.00 | 1.14 | 1.14 | 72 | 1003.8 |
| 20260505035115 | 70 | 177 | 0.0 | 5.0 | 0.00 | 1.14 | 1.14 | 72 | 1003.8 |
| 20260505035040 | 70 | 153 | 0.0 | 4.0 | 0.00 | 1.14 | 1.14 | 72 | 1003.8 |
| 20260505034858 | 70 | 226 | 1.0 | 4.0 | 0.00 | 1.14 | 1.14 | 72 | 1003.8 |
| 20260505034813 | 70 | 146 | 1.0 | 4.0 | 0.00 | 1.14 | 1.14 | 72 | 1003.8 |
| 20260505034717 | 70 | 216 | 1.0 | 4.0 | 0.00 | 1.14 | 1.14 | 72 | 1003.8 |
| 20260505034612 | 70 | 191 | 0.0 | 3.0 | 0.00 | 1.14 | 1.14 | 72 | 1003.9 |
| 20260505034534 | 70 | 250 | 0.0 | 0.0 | 0.00 | 1.14 | 1.14 | 72 | 1003.9 |
| 20260505034507 | 70 | 165 | 0.0 | 0.0 | 0.00 | 1.14 | 1.14 | 72 | 1003.9 |
| 20260505034402 | 70 | 200 | 0.0 | 1.0 | 0.00 | 1.14 | 1.14 | 72 | 1003.9 |
| 20260505034310 | 70 | 214 | 0.0 | 1.0 | 0.00 | 1.14 | 1.14 | 72 | 1003.9 |
| 20260505034205 | 70 | 155 | 0.0 | 3.0 | 0.00 | 1.14 | 1.14 | 72 | 1003.9 |
| 20260505034110 | 70 | 130 | 0.0 | 3.0 | 0.00 | 1.14 | 1.14 | 72 | 1003.9 |
| 20260505034003 | 70 | 144 | 0.0 | 3.0 | 0.00 | 1.14 | 1.14 | 72 | 1003.9 |
| 20260505033929 | 70 | 162 | 0.0 | 4.0 | 0.00 | 1.14 | 1.14 | 71 | 1003.9 |
| 20260505033801 | 70 | 165 | 0.0 | 4.0 | 0.00 | 1.14 | 1.14 | 71 | 1003.9 |
| 20260505033656 | 70 | 195 | 0.0 | 4.0 | 0.00 | 1.14 | 1.14 | 71 | 1003.9 |
| 20260505033621 | 70 | 189 | 0.0 | 4.0 | 0.00 | 1.14 | 1.14 | 71 | 1003.9 |
| 20260505033458 | 70 | 244 | 1.0 | 4.0 | 0.00 | 1.14 | 1.14 | 71 | 1003.8 |
| 20260505033403 | 70 | 212 | 1.0 | 7.0 | 0.00 | 1.14 | 1.14 | 71 | 1003.9 |
| 20260505033313 | 70 | 283 | 1.0 | 7.0 | 0.00 | 1.14 | 1.14 | 71 | 1003.8 |
| 20260505033218 | 70 | 190 | 1.0 | 7.0 | 0.00 | 1.14 | 1.14 | 71 | 1003.8 |
| 20260505033108 | 70 | 196 | 1.0 | 7.0 | 0.00 | 1.14 | 1.14 | 71 | 1003.9 |
| 20260505033040 | 70 | 114 | 0.0 | 7.0 | 0.00 | 1.14 | 1.14 | 71 | 1003.9 |
| 20260505033005 | 70 | 263 | 0.0 | 7.0 | 0.00 | 1.14 | 1.14 | 71 | 1003.9 |
| 20260505032859 | 70 | 136 | 0.0 | 7.0 | 0.00 | 1.14 | 1.14 | 71 | 1003.8 |
| 20260505032806 | 70 | 199 | 0.0 | 7.0 | 0.00 | 1.14 | 1.14 | 72 | 1003.8 |
| 20260505032701 | 70 | 174 | 1.0 | 7.0 | 0.00 | 1.14 | 1.14 | 71 | 1003.8 |
| 20260505032556 | 70 | 181 | 1.0 | 7.0 | 0.00 | 1.14 | 1.14 | 71 | 1003.8 |
| 20260505032500 | 70 | 250 | 0.0 | 5.0 | 0.00 | 1.14 | 1.14 | 71 | 1003.8 |
| 20260505032356 | 70 | 175 | 1.0 | 5.0 | 0.00 | 1.14 | 1.14 | 72 | 1003.8 |
| 20260505032320 | 70 | 262 | 1.0 | 5.0 | 0.00 | 1.14 | 1.14 | 72 | 1003.8 |
| 20260505032234 | 70 | 137 | 1.0 | 5.0 | 0.00 | 1.14 | 1.14 | 72 | 1003.8 |
| 20260505032103 | 70 | 143 | 1.0 | 5.0 | 0.00 | 1.14 | 1.14 | 72 | 1003.8 |
| 20260505031956 | 70 | 255 | 0.0 | 6.0 | 0.00 | 1.14 | 1.14 | 72 | 1003.8 |
| 20260505031921 | 70 | 172 | 0.0 | 6.0 | 0.00 | 1.14 | 1.14 | 72 | 1003.8 |
| 20260505031814 | 70 | 150 | 0.0 | 6.0 | 0.00 | 1.14 | 1.14 | 72 | 1003.8 |
| 20260505031709 | 70 | 150 | 0.0 | 6.0 | 0.00 | 1.14 | 1.14 | 72 | 1003.8 |
| 20260505031613 | 70 | 196 | 0.0 | 6.0 | 0.00 | 1.14 | 1.14 | 72 | 1003.7 |
| 20260505031540 | 70 | 143 | 0.0 | 6.0 | 0.00 | 1.14 | 1.14 | 72 | 1003.7 |
| 20260505031508 | 70 | 148 | 1.0 | 6.0 | 0.00 | 1.14 | 1.14 | 72 | 1003.7 |
| 20260505031406 | 70 | 57 | 1.0 | 6.0 | 0.00 | 1.14 | 1.14 | 72 | 1003.6 |
| 20260505031310 | 70 | 165 | 2.0 | 6.0 | 0.00 | 1.14 | 1.14 | 72 | 1003.6 |
| 20260505031236 | 70 | 154 | 1.0 | 6.0 | 0.00 | 1.14 | 1.14 | 72 | 1003.7 |
| 20260505031109 | 70 | 150 | 1.0 | 5.0 | 0.00 | 1.14 | 1.14 | 72 | 1003.6 |
| 20260505031004 | 70 | 221 | 1.0 | 5.0 | 0.00 | 1.14 | 1.14 | 72 | 1003.6 |
| 20260505030928 | 70 | 224 | 0.0 | 4.0 | 0.00 | 1.14 | 1.14 | 72 | 1003.6 |
| 20260505030802 | 70 | 155 | 0.0 | 4.0 | 0.00 | 1.14 | 1.14 | 72 | 1003.7 |
| 20260505030657 | 70 | 143 | 0.0 | 4.0 | 0.00 | 1.14 | 1.14 | 72 | 1003.7 |
| 20260505030605 | 70 | 144 | 0.0 | 4.0 | 0.00 | 1.14 | 1.14 | 72 | 1003.6 |
| 20260505030500 | 70 | 94 | 1.0 | 4.0 | 0.00 | 1.14 | 1.14 | 72 | 1003.6 |
| 20260505030355 | 70 | 153 | 1.0 | 4.0 | 0.00 | 1.14 | 1.14 | 71 | 1003.7 |
| 20260505030259 | 70 | 174 | 1.0 | 4.0 | 0.00 | 1.14 | 1.14 | 71 | 1003.6 |
| 20260505030214 | 70 | 210 | 0.0 | 4.0 | 0.00 | 1.14 | 1.14 | 71 | 1003.7 |
| 20260505030150 | 70 | 243 | 0.0 | 4.0 | 0.00 | 1.14 | 1.14 | 71 | 1003.7 |
| 20260505030017 | 70 | 204 | 1.0 | 4.0 | 0.00 | 1.14 | 1.14 | 71 | 1003.6 |
| 20260505025914 | 70 | 208 | 1.0 | 4.0 | 0.00 | 1.14 | 1.14 | 71 | 1003.6 |
| 20260505025809 | 70 | 248 | 0.0 | 0.0 | 0.00 | 1.14 | 1.14 | 71 | 1003.6 |
| 20260505025713 | 70 | 174 | 0.0 | 0.0 | 0.00 | 1.14 | 1.14 | 71 | 1003.6 |
| 20260505025608 | 70 | 116 | 0.0 | 0.0 | 0.00 | 1.14 | 1.14 | 71 | 1003.6 |
| 20260505025503 | 70 | 37 | 0.0 | 0.0 | 0.00 | 1.14 | 1.14 | 70 | 1003.6 |
| 20260505025407 | 70 | 207 | 0.0 | 0.0 | 0.00 | 1.14 | 1.14 | 70 | 1003.6 |
| 20260505025304 | 70 | 134 | 0.0 | 0.0 | 0.00 | 1.14 | 1.14 | 70 | 1003.5 |
| 20260505025201 | 70 | 167 | 0.0 | 2.0 | 0.00 | 1.14 | 1.14 | 70 | 1003.6 |
| 20260505025105 | 70 | 168 | 0.0 | 2.0 | 0.00 | 1.14 | 1.14 | 70 | 1003.5 |
| 20260505025020 | 71 | 168 | 0.0 | 2.0 | 0.00 | 1.14 | 1.14 | 70 | 1003.5 |
| 20260505024903 | 71 | 204 | 0.0 | 2.0 | 0.00 | 1.14 | 1.14 | 70 | 1003.5 |
| 20260505024758 | 71 | 226 | 0.0 | 2.0 | 0.00 | 1.14 | 1.14 | 70 | 1003.5 |
| 20260505024723 | 71 | 226 | 0.0 | 2.0 | 0.00 | 1.14 | 1.14 | 70 | 1003.5 |
| 20260505024617 | 71 | 205 | 0.0 | 2.0 | 0.00 | 1.14 | 1.14 | 69 | 1003.5 |
| 20260505024520 | 70 | 122 | 0.0 | 4.0 | 0.00 | 1.14 | 1.14 | 69 | 1003.5 |
| 20260505024455 | 71 | 122 | 0.0 | 4.0 | 0.00 | 1.14 | 1.14 | 70 | 1003.5 |
| 20260505024419 | 71 | 153 | 0.0 | 4.0 | 0.00 | 1.14 | 1.14 | 70 | 1003.4 |
| 20260505024344 | 71 | 158 | 0.0 | 4.0 | 0.00 | 1.14 | 1.14 | 70 | 1003.5 |
| 20260505024157 | 71 | 175 | 0.0 | 4.0 | 0.00 | 1.14 | 1.14 | 70 | 1003.4 |
| 20260505024111 | 70 | 230 | 0.0 | 4.0 | 0.00 | 1.14 | 1.14 | 70 | 1003.4 |
| 20260505024015 | 70 | 209 | 0.0 | 4.0 | 0.00 | 1.14 | 1.14 | 70 | 1003.4 |
| 20260505023910 | 70 | 345 | 0.0 | 4.0 | 0.00 | 1.14 | 1.14 | 70 | 1003.4 |
| 20260505023805 | 70 | 304 | 0.0 | 4.0 | 0.00 | 1.14 | 1.14 | 70 | 1003.4 |
| 20260505023713 | 70 | 233 | 0.0 | 4.0 | 0.00 | 1.14 | 1.14 | 70 | 1003.3 |
| 20260505023608 | 70 | 184 | 0.0 | 4.0 | 0.00 | 1.14 | 1.14 | 70 | 1003.3 |
| 20260505023503 | 70 | 176 | 0.0 | 4.0 | 0.00 | 1.14 | 1.14 | 70 | 1003.3 |
| 20260505023427 | 70 | 255 | 0.0 | 4.0 | 0.00 | 1.14 | 1.14 | 70 | 1003.3 |
| 20260505023321 | 70 | 144 | 0.0 | 4.0 | 0.00 | 1.14 | 1.14 | 70 | 1003.3 |
| 20260505023204 | 70 | 128 | 0.0 | 4.0 | 0.00 | 1.14 | 1.14 | 70 | 1003.2 |
| 20260505023130 | 69 | 214 | 0.0 | 4.0 | 0.00 | 1.14 | 1.14 | 70 | 1003.2 |
| 20260505023059 | 70 | 233 | 0.0 | 4.0 | 0.00 | 1.14 | 1.14 | 70 | 1003.2 |
| 20260505023024 | 70 | 156 | 0.0 | 4.0 | 0.00 | 1.14 | 1.14 | 70 | 1003.2 |
| 20260505022930 | 70 | 155 | 1.0 | 4.0 | 0.00 | 1.14 | 1.14 | 70 | 1003.2 |
| 20260505022804 | 70 | 179 | 1.0 | 4.0 | 0.00 | 1.14 | 1.14 | 70 | 1003.2 |
| 20260505022659 | 70 | 162 | 0.0 | 0.0 | 0.00 | 1.14 | 1.14 | 70 | 1003.2 |
| 20260505022622 | 70 | 205 | 0.0 | 0.0 | 0.00 | 1.14 | 1.14 | 70 | 1003.2 |
| 20260505022517 | 70 | 160 | 0.0 | 0.0 | 0.00 | 1.14 | 1.14 | 70 | 1003.1 |
| 20260505022441 | 70 | 161 | 0.0 | 0.0 | 0.00 | 1.14 | 1.14 | 70 | 1003.1 |
| 20260505022255 | 70 | 155 | 0.0 | 0.0 | 0.00 | 1.14 | 1.14 | 70 | 1003.1 |
| 20260505022210 | 70 | 178 | 0.0 | 0.0 | 0.00 | 1.14 | 1.14 | 70 | 1003.1 |
| 20260505022118 | 70 | 165 | 0.0 | 0.0 | 0.00 | 1.14 | 1.14 | 70 | 1003.1 |
| 20260505022013 | 70 | 165 | 0.0 | 0.0 | 0.00 | 1.14 | 1.14 | 70 | 1003.1 |
| 20260505021907 | 70 | 165 | 0.0 | 0.0 | 0.00 | 1.14 | 1.14 | 70 | 1003.1 |
| 20260505021812 | 70 | 165 | 0.0 | 0.0 | 0.00 | 1.14 | 1.14 | 70 | 1003.0 |
| 20260505021706 | 70 | 165 | 0.0 | 0.0 | 0.00 | 1.14 | 1.14 | 70 | 1003.0 |
| 20260505021618 | 70 | 141 | 0.0 | 0.0 | 0.00 | 1.14 | 1.14 | 70 | 1002.9 |
| 20260505021601 | 70 | 141 | 0.0 | 0.0 | 0.00 | 1.14 | 1.14 | 70 | 1003.0 |
| 20260505021509 | 70 | 141 | 0.0 | 0.0 | 0.00 | 1.14 | 1.14 | 70 | 1002.9 |
| 20260505021404 | 70 | 141 | 0.0 | 0.0 | 0.00 | 1.14 | 1.14 | 69 | 1003.0 |
| 20260505021327 | 70 | 141 | 0.0 | 0.0 | 0.00 | 1.14 | 1.14 | 69 | 1002.9 |
| 20260505021202 | 70 | 141 | 0.0 | 0.0 | 0.00 | 1.14 | 1.14 | 70 | 1002.9 |
| 20260505021057 | 70 | 141 | 0.0 | 0.0 | 0.00 | 1.14 | 1.14 | 69 | 1002.9 |
| 20260505021001 | 70 | 141 | 0.0 | 0.0 | 0.00 | 1.14 | 1.14 | 69 | 1002.9 |
| 20260505020855 | 70 | 141 | 0.0 | 0.0 | 0.00 | 1.14 | 1.14 | 69 | 1002.9 |
| 20260505020759 | 70 | 141 | 0.0 | 0.0 | 0.00 | 1.14 | 1.14 | 69 | 1002.8 |
| 20260505020657 | 70 | 141 | 0.0 | 0.0 | 0.00 | 1.14 | 1.14 | 69 | 1002.8 |
| 20260505020621 | 70 | 141 | 0.0 | 0.0 | 0.00 | 1.14 | 1.14 | 69 | 1002.8 |
| 20260505020456 | 70 | 141 | 0.0 | 0.0 | 0.00 | 1.14 | 1.14 | 69 | 1002.8 |
| 20260505020412 | 70 | 141 | 0.0 | 0.0 | 0.00 | 1.14 | 1.14 | 69 | 1002.8 |
| 20260505020315 | 70 | 141 | 0.0 | 0.0 | 0.00 | 1.14 | 1.14 | 69 | 1002.8 |
| 20260505020209 | 70 | 141 | 0.0 | 0.0 | 0.00 | 1.14 | 1.14 | 69 | 1002.8 |
| 20260505020125 | 70 | 141 | 0.0 | 0.0 | 0.00 | 1.14 | 1.14 | 69 | 1002.8 |
| 20260505020033 | 70 | 141 | 0.0 | 0.0 | 0.00 | 1.14 | 1.14 | 69 | 1002.7 |
| 20260505015909 | 70 | 141 | 0.0 | 0.0 | 0.00 | 1.14 | 1.14 | 69 | 1002.7 |
| 20260505015804 | 70 | 141 | 0.0 | 0.0 | 0.00 | 1.14 | 1.14 | 68 | 1002.7 |
| 20260505015708 | 70 | 141 | 0.0 | 0.0 | 0.00 | 1.14 | 1.14 | 69 | 1002.8 |
| 20260505015603 | 70 | 141 | 0.0 | 0.0 | 0.00 | 1.14 | 1.14 | 69 | 1002.7 |
| 20260505015458 | 70 | 141 | 0.0 | 0.0 | 0.00 | 1.14 | 1.14 | 68 | 1002.7 |
| 20260505015403 | 71 | 141 | 0.0 | 0.0 | 0.00 | 1.14 | 1.14 | 68 | 1002.7 |
| 20260505015303 | 71 | 141 | 0.0 | 0.0 | 0.00 | 1.14 | 1.14 | 68 | 1002.7 |
| 20260505015156 | 71 | 141 | 0.0 | 0.0 | 0.00 | 1.14 | 1.14 | 68 | 1002.7 |
| 20260505015120 | 71 | 141 | 0.0 | 0.0 | 0.00 | 1.14 | 1.14 | 68 | 1002.7 |
| 20260505014954 | 71 | 141 | 0.0 | 0.0 | 0.00 | 1.14 | 1.14 | 68 | 1002.6 |
| 20260505014919 | 71 | 141 | 0.0 | 0.0 | 0.00 | 1.14 | 1.14 | 68 | 1002.6 |
| 20260505014813 | 71 | 141 | 0.0 | 0.0 | 0.00 | 1.14 | 1.14 | 68 | 1002.6 |
| 20260505014708 | 71 | 141 | 0.0 | 0.0 | 0.00 | 1.14 | 1.14 | 68 | 1002.6 |
| 20260505014612 | 71 | 141 | 0.0 | 0.0 | 0.00 | 1.14 | 1.14 | 67 | 1002.6 |
| 20260505014540 | 71 | 141 | 0.0 | 0.0 | 0.00 | 1.14 | 1.14 | 67 | 1002.6 |
| 20260505014512 | 71 | 141 | 0.0 | 0.0 | 0.00 | 1.14 | 1.14 | 67 | 1002.6 |
| 20260505014416 | 71 | 141 | 0.0 | 0.0 | 0.00 | 1.14 | 1.14 | 67 | 1002.6 |
| 20260505014310 | 71 | 141 | 0.0 | 0.0 | 0.00 | 1.14 | 1.14 | 67 | 1002.5 |
| 20260505014205 | 72 | 141 | 0.0 | 0.0 | 0.00 | 1.14 | 1.14 | 67 | 1002.6 |
| 20260505014100 | 72 | 141 | 0.0 | 0.0 | 0.00 | 1.14 | 1.14 | 67 | 1002.6 |
| 20260505014004 | 72 | 141 | 0.0 | 0.0 | 0.00 | 1.14 | 1.14 | 67 | 1002.5 |
| 20260505013903 | 72 | 141 | 0.0 | 0.0 | 0.00 | 1.14 | 1.14 | 66 | 1002.6 |
| 20260505013827 | 72 | 141 | 0.0 | 0.0 | 0.00 | 1.14 | 1.14 | 66 | 1002.5 |
| 20260505013701 | 72 | 141 | 0.0 | 0.0 | 0.00 | 1.14 | 1.14 | 66 | 1002.5 |
| 20260505013625 | 72 | 141 | 0.0 | 0.0 | 0.00 | 1.14 | 1.14 | 66 | 1002.5 |
| 20260505013459 | 72 | 141 | 0.0 | 0.0 | 0.00 | 1.14 | 1.14 | 66 | 1002.5 |
| 20260505013423 | 72 | 141 | 0.0 | 0.0 | 0.00 | 1.14 | 1.14 | 66 | 1002.4 |
| 20260505013257 | 72 | 141 | 0.0 | 0.0 | 0.00 | 1.14 | 1.14 | 65 | 1002.4 |
| 20260505013213 | 72 | 141 | 0.0 | 0.0 | 0.00 | 1.14 | 1.14 | 65 | 1002.4 |
| 20260505013121 | 72 | 141 | 0.0 | 0.0 | 0.00 | 1.14 | 1.14 | 65 | 1002.4 |
| 20260505013047 | 72 | 141 | 0.0 | 0.0 | 0.00 | 1.14 | 1.14 | 64 | 1002.4 |
| 20260505012958 | 73 | 141 | 0.0 | 0.0 | 0.00 | 1.14 | 1.14 | 64 | 1002.4 |
| 20260505012922 | 73 | 141 | 0.0 | 0.0 | 0.00 | 1.14 | 1.14 | 64 | 1002.4 |
| 20260505012815 | 73 | 141 | 0.0 | 0.0 | 0.00 | 1.14 | 1.14 | 64 | 1002.4 |
| 20260505012709 | 73 | 141 | 0.0 | 0.0 | 0.00 | 1.14 | 1.14 | 64 | 1002.4 |
| 20260505012613 | 73 | 141 | 0.0 | 0.0 | 0.00 | 1.14 | 1.14 | 64 | 1002.3 |
| 20260505012508 | 73 | 141 | 0.0 | 0.0 | 0.00 | 1.14 | 1.14 | 64 | 1002.3 |
| 20260505012406 | 73 | 141 | 0.0 | 0.0 | 0.00 | 1.14 | 1.14 | 63 | 1002.3 |
| 20260505012310 | 74 | 141 | 0.0 | 0.0 | 0.00 | 1.14 | 1.14 | 63 | 1002.3 |
| 20260505012205 | 74 | 141 | 0.0 | 0.0 | 0.00 | 1.14 | 1.14 | 62 | 1002.3 |
| 20260505012100 | 74 | 141 | 0.0 | 0.0 | 0.00 | 1.14 | 1.14 | 62 | 1002.3 |
| 20260505012004 | 74 | 141 | 0.0 | 0.0 | 0.00 | 1.14 | 1.14 | 62 | 1002.3 |
| 20260505011859 | 74 | 141 | 0.0 | 0.0 | 0.00 | 1.14 | 1.14 | 62 | 1002.3 |
| 20260505011754 | 74 | 141 | 0.0 | 0.0 | 0.00 | 1.14 | 1.14 | 60 | 1002.3 |
| 20260505011702 | 74 | 141 | 0.0 | 0.0 | 0.00 | 1.14 | 1.14 | 61 | 1002.3 |
| 20260505011634 | 74 | 141 | 0.0 | 0.0 | 0.00 | 1.14 | 1.14 | 61 | 1002.3 |
| 20260505011557 | 74 | 141 | 0.0 | 0.0 | 0.00 | 1.14 | 1.14 | 60 | 1002.2 |
| 20260505011521 | 74 | 141 | 0.0 | 0.0 | 0.00 | 1.14 | 1.14 | 60 | 1002.2 |
| 20260505011416 | 75 | 141 | 0.0 | 0.0 | 0.00 | 1.14 | 1.14 | 59 | 1002.2 |
| 20260505011341 | 75 | 141 | 0.0 | 0.0 | 0.00 | 1.14 | 1.14 | 59 | 1002.1 |
| 20260505011154 | 75 | 141 | 0.0 | 0.0 | 0.00 | 1.14 | 1.14 | 59 | 1002.1 |
| 20260505011109 | 75 | 141 | 0.0 | 0.0 | 0.00 | 1.14 | 1.14 | 59 | 1002.1 |
| 20260505011017 | 75 | 141 | 0.0 | 0.0 | 0.00 | 1.14 | 1.14 | 59 | 1002.1 |
| 20260505010912 | 75 | 141 | 0.0 | 0.0 | 0.00 | 1.14 | 1.14 | 59 | 1002.1 |
| 20260505010807 | 76 | 141 | 0.0 | 0.0 | 0.00 | 1.14 | 1.14 | 58 | 1002.0 |
| 20260505010731 | 76 | 141 | 0.0 | 0.0 | 0.00 | 1.14 | 1.14 | 58 | 1002.0 |
| 20260505010605 | 76 | 141 | 0.0 | 0.0 | 0.00 | 1.14 | 1.14 | 58 | 1002.0 |
| 20260505010509 | 76 | 141 | 0.0 | 0.0 | 0.00 | 1.14 | 1.14 | 58 | 1002.0 |
| 20260505010404 | 77 | 141 | 0.0 | 0.0 | 0.00 | 1.14 | 1.14 | 58 | 1002.0 |
| 20260505010303 | 77 | 141 | 0.0 | 0.0 | 0.00 | 1.14 | 1.14 | 57 | 1002.0 |
| 20260505010207 | 77 | 141 | 0.0 | 0.0 | 0.00 | 1.14 | 1.14 | 56 | 1001.9 |
| 20260505010142 | 77 | 141 | 0.0 | 0.0 | 0.00 | 1.14 | 1.14 | 55 | 1001.9 |
| 20260505010113 | 77 | 141 | 0.0 | 0.0 | 0.00 | 1.14 | 1.14 | 55 | 1002.0 |
| 20260505010003 | 77 | 141 | 0.0 | 0.0 | 0.00 | 1.14 | 1.14 | 55 | 1002.0 |
| 20260505005855 | 78 | 141 | 0.0 | 0.0 | 0.00 | 1.14 | 1.14 | 54 | 1001.9 |
| 20260505005809 | 78 | 141 | 0.0 | 0.0 | 0.00 | 1.14 | 1.14 | 55 | 1001.9 |
| 20260505005713 | 78 | 141 | 0.0 | 0.0 | 0.00 | 1.14 | 1.14 | 54 | 1001.9 |
| 20260505005628 | 78 | 141 | 0.0 | 0.0 | 0.00 | 1.14 | 1.14 | 54 | 1001.9 |
| 20260505005456 | 78 | 141 | 0.0 | 0.0 | 0.00 | 1.14 | 1.14 | 53 | 1001.9 |
| 20260505005410 | 79 | 141 | 0.0 | 0.0 | 0.00 | 1.14 | 1.14 | 53 | 1001.9 |
| 20260505005334 | 79 | 141 | 0.0 | 0.0 | 0.00 | 1.14 | 1.14 | 53 | 1001.8 |
| 20260505005208 | 79 | 141 | 0.0 | 0.0 | 0.00 | 1.14 | 1.14 | 53 | 1001.8 |
| 20260505005103 | 79 | 141 | 0.0 | 0.0 | 0.00 | 1.14 | 1.14 | 52 | 1001.8 |
| 20260505005007 | 80 | 141 | 0.0 | 0.0 | 0.00 | 1.14 | 1.14 | 51 | 1001.8 |
| 20260505004902 | 80 | 141 | 0.0 | 0.0 | 0.00 | 1.14 | 1.14 | 50 | 1001.8 |
| 20260505004801 | 80 | 141 | 0.0 | 0.0 | 0.00 | 1.14 | 1.14 | 50 | 1001.8 |
| 20260505004725 | 81 | 141 | 0.0 | 0.0 | 0.00 | 1.14 | 1.14 | 50 | 1001.8 |
| 20260505004628 | 81 | 141 | 0.0 | 0.0 | 0.00 | 1.14 | 1.14 | 50 | 1001.8 |
| 20260505004531 | 81 | 141 | 0.0 | 0.0 | 0.00 | 1.14 | 1.14 | 50 | 1001.8 |
| 20260505004404 | 81 | 141 | 0.0 | 0.0 | 0.00 | 1.14 | 1.14 | 50 | 1001.8 |
| 20260505004319 | 81 | 141 | 0.0 | 0.0 | 0.00 | 1.14 | 1.14 | 49 | 1001.8 |
| 20260505004202 | 81 | 141 | 0.0 | 0.0 | 0.00 | 1.14 | 1.14 | 49 | 1001.8 |
| 20260505004117 | 81 | 141 | 0.0 | 0.0 | 0.00 | 1.14 | 1.14 | 50 | 1001.8 |
| 20260505004020 | 81 | 141 | 0.0 | 0.0 | 0.00 | 1.14 | 1.14 | 50 | 1001.7 |
| 20260505003907 | 81 | 141 | 0.0 | 0.0 | 0.00 | 1.14 | 1.14 | 50 | 1001.8 |
| 20260505003802 | 81 | 141 | 0.0 | 0.0 | 0.00 | 1.14 | 1.14 | 50 | 1001.7 |
| 20260505003657 | 81 | 141 | 0.0 | 0.0 | 0.00 | 1.14 | 1.14 | 50 | 1001.7 |
| 20260505003621 | 81 | 141 | 0.0 | 0.0 | 0.00 | 1.14 | 1.14 | 50 | 1001.7 |
| 20260505003516 | 81 | 141 | 0.0 | 0.0 | 0.00 | 1.14 | 1.14 | 51 | 1001.7 |
| 20260505003440 | 81 | 141 | 0.0 | 0.0 | 0.00 | 1.14 | 1.14 | 50 | 1001.7 |
| 20260505003314 | 81 | 141 | 0.0 | 0.0 | 0.00 | 1.14 | 1.14 | 50 | 1001.7 |
| 20260505003209 | 81 | 141 | 0.0 | 0.0 | 0.00 | 1.14 | 1.14 | 50 | 1001.7 |
| 20260505003117 | 81 | 141 | 0.0 | 0.0 | 0.00 | 1.14 | 1.14 | 50 | 1001.6 |
| 20260505003042 | 80 | 141 | 0.0 | 0.0 | 0.00 | 1.14 | 1.14 | 50 | 1001.6 |
| 20260505003014 | 81 | 141 | 0.0 | 0.0 | 0.00 | 1.14 | 1.14 | 50 | 1001.6 |
| 20260505002918 | 80 | 141 | 0.0 | 0.0 | 0.00 | 1.14 | 1.14 | 50 | 1001.6 |
| 20260505002811 | 80 | 141 | 0.0 | 0.0 | 0.00 | 1.14 | 1.14 | 50 | 1001.6 |
| 20260505002706 | 80 | 141 | 0.0 | 0.0 | 0.00 | 1.14 | 1.14 | 50 | 1001.6 |
| 20260505002601 | 80 | 141 | 0.0 | 0.0 | 0.00 | 1.14 | 1.14 | 51 | 1001.6 |
| 20260505002509 | 80 | 141 | 0.0 | 0.0 | 0.00 | 1.14 | 1.14 | 51 | 1001.6 |
| 20260505002404 | 80 | 141 | 0.0 | 0.0 | 0.00 | 1.14 | 1.14 | 51 | 1001.6 |
| 20260505002259 | 80 | 141 | 0.0 | 0.0 | 0.00 | 1.14 | 1.14 | 51 | 1001.6 |
| 20260505002203 | 79 | 141 | 0.0 | 0.0 | 0.00 | 1.14 | 1.14 | 51 | 1001.6 |
| 20260505002118 | 79 | 141 | 0.0 | 0.0 | 0.00 | 1.14 | 1.14 | 50 | 1001.6 |
| 20260505002001 | 79 | 136 | 0.0 | 0.0 | 0.00 | 1.14 | 1.14 | 50 | 1001.6 |
| 20260505001804 | 79 | 242 | 0.0 | 0.0 | 0.00 | 1.14 | 1.14 | 50 | 1001.6 |
| 20260505001708 | 79 | 242 | 0.0 | 0.0 | 0.00 | 1.14 | 1.14 | 51 | 1001.6 |
| 20260505001603 | 79 | 242 | 0.0 | 0.0 | 0.00 | 1.14 | 1.14 | 50 | 1001.6 |
| 20260505001518 | 79 | 336 | 0.0 | 0.0 | 0.00 | 1.14 | 1.14 | 51 | 1001.6 |
| 20260505001458 | 79 | 188 | 0.0 | 0.0 | 0.00 | 1.14 | 1.14 | 51 | 1001.6 |
| 20260505001401 | 79 | 188 | 0.0 | 0.0 | 0.00 | 1.14 | 1.14 | 51 | 1001.6 |
| 20260505001257 | 79 | 188 | 0.0 | 0.0 | 0.00 | 1.14 | 1.14 | 51 | 1001.6 |
| 20260505001221 | 79 | 188 | 0.0 | 0.0 | 0.00 | 1.14 | 1.14 | 51 | 1001.6 |
| 20260505001100 | 79 | 188 | 0.0 | 0.0 | 0.00 | 1.14 | 1.14 | 50 | 1001.6 |
| 20260505000955 | 79 | 188 | 0.0 | 0.0 | 0.00 | 1.14 | 1.14 | 51 | 1001.6 |
| 20260505000919 | 79 | 120 | 0.0 | 0.0 | 0.00 | 1.14 | 1.14 | 50 | 1001.6 |
| 20260505000813 | 79 | 120 | 0.0 | 0.0 | 0.00 | 1.14 | 1.14 | 50 | 1001.7 |
| 20260505000716 | 79 | 239 | 0.0 | 0.0 | 0.00 | 1.14 | 1.14 | 50 | 1001.6 |
| 20260505000611 | 79 | 239 | 0.0 | 0.0 | 0.00 | 1.14 | 1.14 | 49 | 1001.6 |
| 20260505000507 | 79 | 135 | 0.0 | 0.0 | 0.00 | 1.14 | 1.14 | 49 | 1001.6 |
| 20260505000414 | 80 | 218 | 0.0 | 0.0 | 0.00 | 1.14 | 1.14 | 49 | 1001.6 |
| 20260505000329 | 80 | 162 | 0.0 | 3.0 | 0.00 | 1.14 | 1.14 | 49 | 1001.6 |
| 20260505000212 | 80 | 215 | 0.0 | 4.0 | 0.00 | 1.14 | 1.14 | 49 | 1001.7 |
| 20260505000151 | 79 | 215 | 0.0 | 4.0 | 0.00 | 1.14 | 1.14 | 49 | 1001.7 |
| 20260505000139 | 80 | 217 | 0.0 | 4.0 | 0.00 | 1.14 | 1.14 | 49 | 1001.7 |
| 20260505000006 | 80 | 253 | 0.0 | 4.0 | 0.00 | 1.14 | 1.14 | 49 | 1001.7 |
| 20260504235859 | 80 | 251 | 0.0 | 4.0 | 0.00 | 1.37 | 1.14 | 49 | 1001.7 |
| 20260504235823 | 80 | 250 | 0.0 | 5.0 | 0.00 | 1.37 | 1.14 | 49 | 1001.6 |
| 20260504235658 | 80 | 269 | 0.0 | 5.0 | 0.00 | 1.37 | 1.14 | 49 | 1001.7 |
| 20260504235556 | 80 | 223 | 1.0 | 5.0 | 0.00 | 1.37 | 1.14 | 49 | 1001.6 |
| 20260504235521 | 80 | 173 | 1.0 | 5.0 | 0.00 | 1.37 | 1.14 | 49 | 1001.6 |
| 20260504235416 | 80 | 276 | 0.0 | 5.0 | 0.00 | 1.37 | 1.14 | 48 | 1001.6 |
| 20260504235319 | 80 | 45 | 0.0 | 5.0 | 0.00 | 1.37 | 1.14 | 48 | 1001.6 |
| 20260504235223 | 80 | 292 | 0.0 | 5.0 | 0.00 | 1.37 | 1.14 | 48 | 1001.6 |
| 20260504235116 | 80 | 292 | 1.0 | 5.0 | 0.00 | 1.37 | 1.14 | 48 | 1001.6 |
| 20260504235011 | 80 | 250 | 1.0 | 5.0 | 0.00 | 1.37 | 1.14 | 48 | 1001.6 |
| 20260504234906 | 80 | 248 | 1.0 | 4.0 | 0.00 | 1.37 | 1.14 | 47 | 1001.6 |
| 20260504234835 | 80 | 210 | 2.0 | 7.0 | 0.00 | 1.37 | 1.14 | 47 | 1001.7 |
| 20260504234719 | 80 | 208 | 2.0 | 7.0 | 0.00 | 1.37 | 1.14 | 47 | 1001.7 |
| 20260504234632 | 81 | 221 | 1.0 | 7.0 | 0.00 | 1.37 | 1.14 | 47 | 1001.7 |
| 20260504234516 | 80 | 274 | 0.0 | 7.0 | 0.00 | 1.37 | 1.14 | 47 | 1001.6 |
| 20260504234505 | 81 | 277 | 1.0 | 7.0 | 0.00 | 1.37 | 1.14 | 47 | 1001.6 |
| 20260504234409 | 81 | 328 | 2.0 | 7.0 | 0.00 | 1.37 | 1.14 | 46 | 1001.7 |
| 20260504234304 | 81 | 25 | 2.0 | 7.0 | 0.00 | 1.37 | 1.14 | 47 | 1001.7 |
| 20260504234228 | 81 | 256 | 2.0 | 7.0 | 0.00 | 1.37 | 1.14 | 46 | 1001.6 |
| 20260504234103 | 81 | 268 | 2.0 | 7.0 | 0.00 | 1.37 | 1.14 | 46 | 1001.7 |
| 20260504234002 | 81 | 276 | 2.0 | 7.0 | 0.00 | 1.37 | 1.14 | 46 | 1001.7 |
| 20260504233905 | 81 | 155 | 2.0 | 6.0 | 0.00 | 1.37 | 1.14 | 46 | 1001.7 |
| 20260504233757 | 81 | 278 | 1.0 | 6.0 | 0.00 | 1.37 | 1.14 | 45 | 1001.7 |
| 20260504233721 | 81 | 162 | 1.0 | 6.0 | 0.00 | 1.37 | 1.14 | 45 | 1001.7 |
| 20260504233616 | 81 | 243 | 1.0 | 6.0 | 0.00 | 1.37 | 1.14 | 45 | 1001.6 |
| 20260504233541 | 82 | 98 | 2.0 | 6.0 | 0.00 | 1.37 | 1.14 | 45 | 1001.7 |
| 20260504233435 | 82 | 292 | 3.0 | 6.0 | 0.00 | 1.37 | 1.14 | 45 | 1001.7 |
| 20260504233318 | 82 | 140 | 2.0 | 8.0 | 0.00 | 1.37 | 1.14 | 45 | 1001.7 |
| 20260504233156 | 82 | 210 | 1.0 | 8.0 | 0.00 | 1.37 | 1.14 | 45 | 1001.7 |
| 20260504233124 | 81 | 232 | 0.0 | 8.0 | 0.00 | 1.37 | 1.14 | 45 | 1001.7 |
| 20260504233111 | 82 | 212 | 0.0 | 8.0 | 0.00 | 1.37 | 1.14 | 45 | 1001.7 |
| 20260504233018 | 82 | 277 | 2.0 | 8.0 | 0.00 | 1.37 | 1.14 | 45 | 1001.7 |
| 20260504232912 | 82 | 282 | 2.0 | 8.0 | 0.00 | 1.37 | 1.14 | 44 | 1001.7 |
| 20260504232806 | 82 | 187 | 2.0 | 8.0 | 0.00 | 1.37 | 1.14 | 44 | 1001.7 |
| 20260504232730 | 82 | 292 | 2.0 | 9.0 | 0.00 | 1.37 | 1.14 | 44 | 1001.7 |
| 20260504232604 | 82 | 285 | 3.0 | 9.0 | 0.00 | 1.37 | 1.14 | 44 | 1001.7 |
| 20260504232532 | 82 | 270 | 3.0 | 9.0 | 0.00 | 1.37 | 1.14 | 44 | 1001.7 |
| 20260504232416 | 82 | 267 | 2.0 | 9.0 | 0.00 | 1.37 | 1.14 | 44 | 1001.7 |
| 20260504232329 | 83 | 254 | 2.0 | 9.0 | 0.00 | 1.37 | 1.14 | 44 | 1001.8 |
| 20260504232203 | 83 | 137 | 2.0 | 9.0 | 0.00 | 1.37 | 1.14 | 44 | 1001.7 |
| 20260504232127 | 83 | 278 | 2.0 | 9.0 | 0.00 | 1.37 | 1.14 | 43 | 1001.7 |
| 20260504232030 | 83 | 243 | 3.0 | 9.0 | 0.00 | 1.37 | 1.14 | 43 | 1001.7 |
| 20260504231904 | 83 | 250 | 3.0 | 9.0 | 0.00 | 1.37 | 1.14 | 43 | 1001.7 |
| 20260504231759 | 83 | 276 | 2.0 | 7.0 | 0.00 | 1.37 | 1.14 | 43 | 1001.7 |
| 20260504231707 | 84 | 220 | 2.0 | 7.0 | 0.00 | 1.37 | 1.14 | 42 | 1001.7 |
| 20260504231602 | 84 | 210 | 2.0 | 7.0 | 0.00 | 1.37 | 1.14 | 42 | 1001.7 |
| 20260504231509 | 83 | 143 | 2.0 | 7.0 | 0.00 | 1.37 | 1.14 | 42 | 1001.6 |
| 20260504231457 | 84 | 153 | 2.0 | 7.0 | 0.00 | 1.37 | 1.14 | 42 | 1001.6 |
| 20260504231421 | 84 | 84 | 2.0 | 7.0 | 0.00 | 1.37 | 1.14 | 42 | 1001.7 |
| 20260504231255 | 84 | 255 | 2.0 | 7.0 | 0.00 | 1.37 | 1.14 | 42 | 1001.7 |
| 20260504231159 | 84 | 210 | 3.0 | 7.0 | 0.00 | 1.37 | 1.14 | 42 | 1001.7 |
| 20260504231055 | 84 | 210 | 3.0 | 7.0 | 0.00 | 1.37 | 1.14 | 41 | 1001.7 |
| 20260504231018 | 84 | 329 | 2.0 | 6.0 | 0.00 | 1.37 | 1.14 | 42 | 1001.7 |
| 20260504230917 | 84 | 342 | 2.0 | 6.0 | 0.00 | 1.37 | 1.14 | 42 | 1001.7 |
| 20260504230820 | 84 | 99 | 2.0 | 6.0 | 0.00 | 1.37 | 1.14 | 42 | 1001.8 |
| 20260504230654 | 84 | 183 | 1.0 | 6.0 | 0.00 | 1.37 | 1.14 | 42 | 1001.8 |
| 20260504230609 | 84 | 200 | 0.0 | 7.0 | 0.00 | 1.37 | 1.14 | 42 | 1001.8 |
| 20260504230513 | 84 | 229 | 0.0 | 8.0 | 0.00 | 1.37 | 1.14 | 43 | 1001.8 |
| 20260504230408 | 84 | 250 | 1.0 | 8.0 | 0.00 | 1.37 | 1.14 | 43 | 1001.8 |
| 20260504230303 | 84 | 302 | 2.0 | 8.0 | 0.00 | 1.37 | 1.14 | 42 | 1001.8 |
| 20260504230231 | 84 | 250 | 1.0 | 8.0 | 0.00 | 1.37 | 1.14 | 42 | 1001.8 |
| 20260504230126 | 83 | 141 | 1.0 | 8.0 | 0.00 | 1.37 | 1.14 | 42 | 1001.8 |
| 20260504230045 | 83 | 293 | 0.0 | 8.0 | 0.00 | 1.37 | 1.14 | 43 | 1001.8 |
| 20260504230005 | 83 | 155 | 0.0 | 10.0 | 0.00 | 1.37 | 1.14 | 42 | 1001.9 |
| 20260504225857 | 83 | 131 | 2.0 | 10.0 | 0.00 | 1.89 | 1.14 | 42 | 1001.8 |
| 20260504225821 | 83 | 352 | 2.0 | 10.0 | 0.00 | 1.89 | 1.14 | 43 | 1001.8 |
| 20260504225655 | 83 | 242 | 2.0 | 10.0 | 0.00 | 1.89 | 1.14 | 42 | 1001.8 |
| 20260504225559 | 83 | 288 | 3.0 | 10.0 | 0.00 | 1.89 | 1.14 | 43 | 1001.8 |
| 20260504225458 | 83 | 273 | 2.0 | 10.0 | 0.00 | 1.89 | 1.14 | 43 | 1001.7 |
| 20260504225422 | 83 | 257 | 3.0 | 10.0 | 0.00 | 1.89 | 1.14 | 43 | 1001.7 |
| 20260504225257 | 83 | 167 | 3.0 | 10.0 | 0.00 | 1.89 | 1.14 | 43 | 1001.8 |
| 20260504225211 | 83 | 296 | 3.0 | 10.0 | 0.00 | 1.89 | 1.14 | 43 | 1001.7 |
| 20260504225115 | 83 | 212 | 4.0 | 10.0 | 0.00 | 1.89 | 1.14 | 42 | 1001.7 |
| 20260504225010 | 83 | 212 | 3.0 | 8.0 | 0.00 | 1.89 | 1.14 | 43 | 1001.7 |
| 20260504224905 | 83 | 250 | 2.0 | 8.0 | 0.00 | 1.89 | 1.14 | 43 | 1001.7 |
| 20260504224813 | 83 | 238 | 2.0 | 8.0 | 0.00 | 1.89 | 1.14 | 43 | 1001.7 |
| 20260504224708 | 83 | 202 | 3.0 | 8.0 | 0.00 | 1.89 | 1.14 | 44 | 1001.7 |
| 20260504224603 | 83 | 252 | 3.0 | 8.0 | 0.00 | 1.89 | 1.14 | 44 | 1001.7 |
| 20260504224509 | 82 | 304 | 2.0 | 7.0 | 0.00 | 1.89 | 1.14 | 43 | 1001.7 |
| 20260504224457 | 83 | 306 | 3.0 | 7.0 | 0.00 | 1.89 | 1.14 | 43 | 1001.7 |
| 20260504224401 | 83 | 237 | 2.0 | 7.0 | 0.00 | 1.89 | 1.14 | 44 | 1001.7 |
| 20260504224256 | 82 | 142 | 2.0 | 7.0 | 0.00 | 1.89 | 1.14 | 44 | 1001.7 |
| 20260504224220 | 82 | 232 | 1.0 | 7.0 | 0.00 | 1.89 | 1.14 | 44 | 1001.7 |
| 20260504224058 | 82 | 111 | 2.0 | 7.0 | 0.00 | 1.89 | 1.14 | 44 | 1001.7 |
| 20260504224022 | 82 | 103 | 2.0 | 7.0 | 0.00 | 1.89 | 1.14 | 44 | 1001.7 |
| 20260504223917 | 82 | 94 | 3.0 | 7.0 | 0.00 | 1.89 | 1.14 | 44 | 1001.7 |
| 20260504223842 | 82 | 129 | 3.0 | 7.0 | 0.00 | 1.89 | 1.14 | 43 | 1001.8 |
| 20260504223656 | 82 | 150 | 3.0 | 7.0 | 0.00 | 1.89 | 1.14 | 44 | 1001.7 |
| 20260504223621 | 82 | 243 | 3.0 | 7.0 | 0.00 | 1.89 | 1.14 | 46 | 1001.8 |
| 20260504223515 | 82 | 238 | 3.0 | 7.0 | 0.00 | 1.89 | 1.14 | 45 | 1001.8 |
| 20260504223439 | 82 | 329 | 3.0 | 7.0 | 0.00 | 1.89 | 1.14 | 45 | 1001.8 |
| 20260504223256 | 82 | 278 | 3.0 | 7.0 | 0.00 | 1.89 | 1.14 | 44 | 1001.8 |
| 20260504223211 | 82 | 338 | 3.0 | 7.0 | 0.00 | 1.89 | 1.14 | 45 | 1001.8 |
| 20260504223114 | 82 | 258 | 3.0 | 7.0 | 0.00 | 1.89 | 1.14 | 44 | 1001.8 |
| 20260504223057 | 81 | 267 | 3.0 | 7.0 | 0.00 | 1.89 | 1.14 | 44 | 1001.8 |
| 20260504223011 | 81 | 222 | 4.0 | 8.0 | 0.00 | 1.89 | 1.14 | 45 | 1001.8 |
| 20260504222904 | 82 | 256 | 3.0 | 8.0 | 0.00 | 1.89 | 1.14 | 44 | 1001.7 |
| 20260504222759 | 81 | 261 | 1.0 | 8.0 | 0.00 | 1.89 | 1.14 | 45 | 1001.8 |
| 20260504222703 | 81 | 274 | 1.0 | 8.0 | 0.00 | 1.89 | 1.14 | 45 | 1001.8 |
| 20260504222602 | 81 | 261 | 2.0 | 8.0 | 0.00 | 1.89 | 1.14 | 46 | 1001.8 |
| 20260504222457 | 81 | 294 | 2.0 | 8.0 | 0.00 | 1.89 | 1.14 | 45 | 1001.8 |
| 20260504222401 | 81 | 280 | 2.0 | 8.0 | 0.00 | 1.89 | 1.14 | 45 | 1001.8 |
| 20260504222326 | 81 | 262 | 2.0 | 8.0 | 0.00 | 1.89 | 1.14 | 45 | 1001.8 |
| 20260504222159 | 81 | 275 | 3.0 | 8.0 | 0.00 | 1.89 | 1.14 | 45 | 1001.8 |
| 20260504222054 | 81 | 318 | 4.0 | 8.0 | 0.00 | 1.89 | 1.14 | 44 | 1001.8 |
| 20260504222018 | 81 | 268 | 4.0 | 8.0 | 0.00 | 1.89 | 1.14 | 45 | 1001.8 |
| 20260504221857 | 81 | 230 | 3.0 | 7.0 | 0.00 | 1.89 | 1.14 | 45 | 1001.8 |
| 20260504221821 | 81 | 236 | 3.0 | 7.0 | 0.00 | 1.89 | 1.14 | 45 | 1001.8 |
| 20260504221715 | 81 | 281 | 3.0 | 8.0 | 0.00 | 1.89 | 1.14 | 45 | 1001.8 |
| 20260504221639 | 81 | 323 | 3.0 | 8.0 | 0.00 | 1.89 | 1.14 | 45 | 1001.9 |
| 20260504221600 | 80 | 245 | 2.0 | 8.0 | 0.00 | 1.89 | 1.14 | 45 | 1001.9 |
| 20260504221511 | 81 | 294 | 2.0 | 8.0 | 0.00 | 1.89 | 1.14 | 45 | 1001.9 |
| 20260504221406 | 81 | 294 | 2.0 | 8.0 | 0.00 | 1.89 | 1.14 | 46 | 1001.9 |
| 20260504221331 | 81 | 297 | 1.0 | 8.0 | 0.00 | 1.89 | 1.14 | 45 | 1001.9 |
| 20260504221222 | 81 | 124 | 1.0 | 9.0 | 0.00 | 1.89 | 1.14 | 45 | 1001.9 |
| 20260504221109 | 81 | 286 | 2.0 | 9.0 | 0.00 | 1.89 | 1.14 | 45 | 1001.9 |
| 20260504221033 | 81 | 262 | 4.0 | 9.0 | 0.00 | 1.89 | 1.14 | 45 | 1001.9 |
| 20260504220906 | 80 | 219 | 3.0 | 9.0 | 0.00 | 1.89 | 1.14 | 45 | 1001.9 |
| 20260504220801 | 80 | 163 | 4.0 | 9.0 | 0.00 | 1.89 | 1.14 | 45 | 1002.0 |
| 20260504220657 | 80 | 295 | 4.0 | 9.0 | 0.00 | 1.89 | 1.14 | 45 | 1002.0 |
| 20260504220621 | 80 | 222 | 4.0 | 9.0 | 0.00 | 1.89 | 1.14 | 45 | 1002.0 |
| 20260504220455 | 80 | 239 | 4.0 | 9.0 | 0.00 | 1.89 | 1.14 | 45 | 1001.9 |
| 20260504220418 | 80 | 276 | 4.0 | 9.0 | 0.00 | 1.89 | 1.14 | 45 | 1001.9 |
| 20260504220321 | 80 | 307 | 3.0 | 12.0 | 0.00 | 1.89 | 1.14 | 45 | 1001.9 |
| 20260504220158 | 80 | 265 | 2.0 | 12.0 | 0.00 | 1.89 | 1.14 | 45 | 1001.9 |
| 20260504220134 | 80 | 284 | 2.0 | 12.0 | 0.00 | 1.89 | 1.14 | 45 | 1001.9 |
| 20260504220021 | 80 | 263 | 2.0 | 12.0 | 0.00 | 1.89 | 1.14 | 45 | 1001.9 |
| 20260504215934 | 80 | 323 | 2.0 | 12.0 | 0.00 | 1.90 | 1.14 | 45 | 1002.0 |
| 20260504215817 | 80 | 148 | 1.0 | 12.0 | 0.00 | 1.90 | 1.14 | 45 | 1002.0 |
| 20260504215711 | 80 | 250 | 3.0 | 12.0 | 0.00 | 1.90 | 1.14 | 45 | 1002.0 |
| 20260504215606 | 80 | 259 | 4.0 | 12.0 | 0.00 | 1.90 | 1.14 | 44 | 1002.1 |
| 20260504215508 | 80 | 302 | 5.0 | 12.0 | 0.00 | 1.90 | 1.14 | 44 | 1002.1 |
| 20260504215406 | 80 | 300 | 4.0 | 8.0 | 0.00 | 1.90 | 1.14 | 44 | 1002.1 |
| 20260504215311 | 81 | 214 | 3.0 | 8.0 | 0.00 | 1.90 | 1.14 | 44 | 1002.1 |
| 20260504215205 | 81 | 262 | 3.0 | 8.0 | 0.00 | 1.90 | 1.14 | 43 | 1002.1 |
| 20260504215101 | 81 | 299 | 5.0 | 8.0 | 0.00 | 1.90 | 1.14 | 43 | 1002.1 |
| 20260504215005 | 81 | 296 | 4.0 | 8.0 | 0.00 | 1.90 | 1.14 | 43 | 1002.2 |
| 20260504214859 | 81 | 286 | 3.0 | 8.0 | 0.00 | 1.90 | 1.14 | 44 | 1002.2 |
| 20260504214823 | 81 | 291 | 2.0 | 8.0 | 0.00 | 1.90 | 1.14 | 45 | 1002.1 |
| 20260504214700 | 81 | 51 | 0.0 | 8.0 | 0.00 | 1.90 | 1.14 | 45 | 1002.2 |
| 20260504214624 | 81 | 324 | 1.0 | 9.0 | 0.00 | 1.90 | 1.14 | 44 | 1002.1 |
| 20260504214542 | 80 | 15 | 1.0 | 9.0 | 0.00 | 1.90 | 1.14 | 44 | 1002.1 |
| 20260504214459 | 81 | 338 | 3.0 | 9.0 | 0.00 | 1.90 | 1.14 | 44 | 1002.2 |
| 20260504214422 | 81 | 266 | 3.0 | 10.0 | 0.00 | 1.90 | 1.14 | 43 | 1002.2 |
| 20260504214257 | 81 | 286 | 3.0 | 10.0 | 0.00 | 1.90 | 1.14 | 44 | 1002.2 |
| 20260504214212 | 81 | 246 | 3.0 | 10.0 | 0.00 | 1.90 | 1.14 | 43 | 1002.2 |
| 20260504214115 | 81 | 256 | 5.0 | 10.0 | 0.00 | 1.90 | 1.14 | 43 | 1002.2 |
| 20260504214030 | 81 | 283 | 5.0 | 10.0 | 0.00 | 1.90 | 1.14 | 43 | 1002.2 |
| 20260504213917 | 81 | 295 | 4.0 | 10.0 | 0.00 | 1.90 | 1.14 | 42 | 1002.2 |
| 20260504213832 | 81 | 271 | 4.0 | 10.0 | 0.00 | 1.90 | 1.14 | 42 | 1002.1 |
| 20260504213714 | 81 | 240 | 5.0 | 10.0 | 0.00 | 1.90 | 1.14 | 42 | 1002.1 |
| 20260504213609 | 81 | 254 | 4.0 | 10.0 | 0.00 | 1.90 | 1.14 | 43 | 1002.1 |
| 20260504213504 | 81 | 257 | 2.0 | 11.0 | 0.00 | 1.90 | 1.14 | 44 | 1002.1 |
| 20260504213408 | 81 | 6 | 3.0 | 11.0 | 0.00 | 1.90 | 1.14 | 43 | 1002.1 |
| 20260504213303 | 81 | 160 | 3.0 | 11.0 | 0.00 | 1.90 | 1.14 | 43 | 1002.1 |
| 20260504213202 | 81 | 296 | 3.0 | 11.0 | 0.00 | 1.90 | 1.14 | 43 | 1002.1 |
| 20260504213126 | 81 | 198 | 2.0 | 11.0 | 0.00 | 1.90 | 1.14 | 42 | 1002.2 |
| 20260504213032 | 81 | 307 | 1.0 | 11.0 | 0.00 | 1.90 | 1.14 | 44 | 1002.2 |
| 20260504212904 | 81 | 264 | 4.0 | 11.0 | 0.01 | 1.90 | 1.14 | 42 | 1002.2 |
| 20260504212759 | 81 | 176 | 5.0 | 11.0 | 0.04 | 1.90 | 1.14 | 42 | 1002.2 |
| 20260504212703 | 81 | 250 | 4.0 | 11.0 | 0.04 | 1.90 | 1.14 | 42 | 1002.3 |
| 20260504212558 | 81 | 293 | 3.0 | 11.0 | 0.04 | 1.90 | 1.14 | 43 | 1002.3 |
| 20260504212522 | 81 | 156 | 3.0 | 11.0 | 0.04 | 1.90 | 1.14 | 43 | 1002.2 |
| 20260504212400 | 81 | 300 | 3.0 | 11.0 | 0.04 | 1.90 | 1.14 | 43 | 1002.2 |
| 20260504212255 | 81 | 249 | 3.0 | 11.0 | 0.04 | 1.90 | 1.14 | 42 | 1002.3 |
| 20260504212219 | 82 | 146 | 3.0 | 11.0 | 0.04 | 1.90 | 1.14 | 42 | 1002.2 |
| 20260504212122 | 82 | 271 | 4.0 | 11.0 | 0.04 | 1.90 | 1.14 | 43 | 1002.2 |
| 20260504211957 | 82 | 261 | 2.0 | 9.0 | 0.04 | 1.90 | 1.14 | 43 | 1002.2 |
| 20260504211912 | 82 | 285 | 1.0 | 9.0 | 0.04 | 1.90 | 1.14 | 41 | 1002.2 |
| 20260504211816 | 82 | 203 | 2.0 | 9.0 | 0.04 | 1.90 | 1.14 | 42 | 1002.2 |
| 20260504211732 | 82 | 152 | 2.0 | 9.0 | 0.04 | 1.90 | 1.14 | 41 | 1002.2 |
| 20260504211620 | 82 | 286 | 1.0 | 9.0 | 0.04 | 1.90 | 1.14 | 41 | 1002.2 |
| 20260504211555 | 82 | 200 | 1.0 | 9.0 | 0.04 | 1.90 | 1.14 | 41 | 1002.2 |
| 20260504211454 | 83 | 339 | 4.0 | 9.0 | 0.04 | 1.90 | 1.14 | 41 | 1002.2 |
| 20260504211409 | 83 | 214 | 5.0 | 9.0 | 0.04 | 1.90 | 1.14 | 40 | 1002.2 |
| 20260504211333 | 83 | 241 | 5.0 | 9.0 | 0.04 | 1.90 | 1.14 | 40 | 1002.1 |
| 20260504211207 | 83 | 266 | 5.0 | 9.0 | 0.04 | 1.90 | 1.14 | 40 | 1002.2 |
| 20260504211111 | 83 | 255 | 4.0 | 9.0 | 0.04 | 1.90 | 1.14 | 41 | 1002.2 |
| 20260504211005 | 83 | 226 | 2.0 | 8.0 | 0.04 | 1.90 | 1.14 | 42 | 1002.2 |
| 20260504210929 | 83 | 157 | 1.0 | 8.0 | 0.04 | 1.90 | 1.14 | 42 | 1002.2 |
| 20260504210807 | 83 | 115 | 1.0 | 8.0 | 0.04 | 1.90 | 1.14 | 42 | 1002.2 |
| 20260504210702 | 83 | 269 | 2.0 | 12.0 | 0.04 | 1.90 | 1.14 | 41 | 1002.2 |
| 20260504210606 | 83 | 148 | 4.0 | 12.0 | 0.04 | 1.90 | 1.14 | 42 | 1002.3 |
| 20260504210522 | 83 | 259 | 3.0 | 12.0 | 0.04 | 1.90 | 1.14 | 41 | 1002.2 |
| 20260504210425 | 83 | 282 | 3.0 | 12.0 | 0.05 | 1.90 | 1.14 | 41 | 1002.3 |
| 20260504210259 | 83 | 138 | 1.0 | 12.0 | 0.16 | 1.90 | 1.14 | 40 | 1002.2 |
| 20260504210222 | 83 | 83 | 1.0 | 12.0 | 0.16 | 1.90 | 1.14 | 41 | 1002.3 |
| 20260504210158 | 83 | 267 | 1.0 | 12.0 | 0.16 | 1.90 | 1.14 | 41 | 1002.3 |
| 20260504210046 | 82 | 233 | 3.0 | 12.0 | 0.16 | 1.90 | 1.14 | 41 | 1002.3 |
| 20260504205959 | 83 | 113 | 4.0 | 12.0 | 0.16 | 1.90 | 1.14 | 40 | 1002.3 |
| 20260504205922 | 83 | 100 | 5.0 | 12.0 | 0.16 | 2.15 | 1.14 | 40 | 1002.3 |
| 20260504205815 | 83 | 278 | 4.0 | 11.0 | 0.16 | 2.15 | 1.14 | 40 | 1002.3 |
| 20260504205710 | 83 | 37 | 5.0 | 11.0 | 0.16 | 2.15 | 1.14 | 40 | 1002.3 |
| 20260504205634 | 83 | 288 | 5.0 | 11.0 | 0.16 | 2.15 | 1.14 | 39 | 1002.3 |
| 20260504205508 | 83 | 291 | 4.0 | 11.0 | 0.16 | 2.15 | 1.14 | 39 | 1002.3 |
| 20260504205403 | 83 | 257 | 2.0 | 11.0 | 0.16 | 2.15 | 1.14 | 40 | 1002.3 |
| 20260504205312 | 83 | 259 | 2.0 | 11.0 | 0.16 | 2.15 | 1.14 | 40 | 1002.3 |
| 20260504205206 | 84 | 293 | 3.0 | 11.0 | 0.16 | 2.15 | 1.14 | 40 | 1002.3 |
| 20260504205100 | 84 | 256 | 3.0 | 11.0 | 0.16 | 2.15 | 1.14 | 40 | 1002.4 |
| 20260504205004 | 84 | 313 | 2.0 | 8.0 | 0.16 | 2.15 | 1.14 | 40 | 1002.4 |
| 20260504204859 | 84 | 146 | 3.0 | 9.0 | 0.16 | 2.15 | 1.14 | 39 | 1002.4 |
| 20260504204823 | 84 | 145 | 4.0 | 9.0 | 0.16 | 2.15 | 1.14 | 39 | 1002.4 |
| 20260504204657 | 84 | 217 | 3.0 | 9.0 | 0.16 | 2.15 | 1.14 | 38 | 1002.5 |
| 20260504204609 | 84 | 204 | 2.0 | 9.0 | 0.16 | 2.15 | 1.14 | 39 | 1002.5 |
| 20260504204556 | 84 | 271 | 2.0 | 9.0 | 0.16 | 2.15 | 1.14 | 39 | 1002.5 |
| 20260504204500 | 84 | 274 | 1.0 | 9.0 | 0.16 | 2.15 | 1.14 | 40 | 1002.4 |
| 20260504204415 | 84 | 300 | 2.0 | 9.0 | 0.16 | 2.15 | 1.14 | 40 | 1002.4 |
| 20260504204339 | 84 | 236 | 3.0 | 9.0 | 0.16 | 2.15 | 1.14 | 39 | 1002.4 |
| 20260504204242 | 84 | 224 | 4.0 | 9.0 | 0.16 | 2.15 | 1.14 | 39 | 1002.4 |
| 20260504204115 | 84 | 221 | 3.0 | 9.0 | 0.16 | 2.15 | 1.14 | 39 | 1002.4 |
| 20260504204017 | 84 | 158 | 3.0 | 10.0 | 0.16 | 2.15 | 1.14 | 40 | 1002.4 |
| 20260504203912 | 84 | 259 | 3.0 | 10.0 | 0.16 | 2.15 | 1.14 | 40 | 1002.4 |
| 20260504203807 | 84 | 251 | 2.0 | 10.0 | 0.16 | 2.15 | 1.14 | 40 | 1002.4 |
| 20260504203715 | 84 | 248 | 4.0 | 10.0 | 0.16 | 2.15 | 1.14 | 40 | 1002.4 |
| 20260504203609 | 84 | 262 | 4.0 | 10.0 | 0.16 | 2.15 | 1.14 | 40 | 1002.4 |
| 20260504203513 | 84 | 248 | 4.0 | 10.0 | 0.16 | 2.15 | 1.14 | 40 | 1002.5 |
| 20260504203427 | 84 | 276 | 4.0 | 10.0 | 0.16 | 2.15 | 1.14 | 40 | 1002.4 |
| 20260504203308 | 84 | 288 | 4.0 | 10.0 | 0.18 | 2.15 | 1.14 | 40 | 1002.4 |
| 20260504203203 | 84 | 247 | 3.0 | 10.0 | 0.18 | 2.15 | 1.14 | 40 | 1002.4 |
| 20260504203127 | 84 | 275 | 2.0 | 9.0 | 0.18 | 2.15 | 1.14 | 40 | 1002.5 |
| 20260504203018 | 84 | 313 | 1.0 | 9.0 | 0.18 | 2.15 | 1.14 | 41 | 1002.4 |
| 20260504203002 | 84 | 242 | 2.0 | 10.0 | 0.18 | 2.15 | 1.14 | 40 | 1002.4 |
| 20260504202909 | 84 | 213 | 3.0 | 10.0 | 0.14 | 2.14 | 1.13 | 39 | 1002.4 |
| 20260504202804 | 84 | 195 | 4.0 | 10.0 | 0.14 | 2.14 | 1.13 | 40 | 1002.5 |
| 20260504202659 | 84 | 203 | 3.0 | 10.0 | 0.14 | 2.14 | 1.13 | 40 | 1002.5 |
| 20260504202603 | 84 | 129 | 3.0 | 10.0 | 0.14 | 2.14 | 1.13 | 40 | 1002.4 |
| 20260504202457 | 84 | 333 | 4.0 | 10.0 | 0.14 | 2.14 | 1.13 | 39 | 1002.6 |
| 20260504202356 | 84 | 235 | 3.0 | 10.0 | 0.14 | 2.14 | 1.13 | 40 | 1002.6 |
| 20260504202320 | 84 | 119 | 3.0 | 10.0 | 0.14 | 2.14 | 1.13 | 39 | 1002.5 |
| 20260504202155 | 84 | 220 | 3.0 | 10.0 | 0.14 | 2.14 | 1.13 | 40 | 1002.6 |
| 20260504202054 | 84 | 223 | 3.0 | 8.0 | 0.14 | 2.14 | 1.13 | 40 | 1002.6 |
| 20260504202018 | 84 | 107 | 3.0 | 8.0 | 0.14 | 2.14 | 1.13 | 41 | 1002.6 |
| 20260504201912 | 84 | 273 | 3.0 | 8.0 | 0.14 | 2.14 | 1.13 | 40 | 1002.6 |
| 20260504201807 | 84 | 176 | 4.0 | 9.0 | 0.14 | 2.14 | 1.13 | 39 | 1002.7 |
| 20260504201711 | 84 | 309 | 4.0 | 9.0 | 0.14 | 2.14 | 1.13 | 39 | 1002.6 |
| 20260504201642 | 83 | 270 | 3.0 | 9.0 | 0.14 | 2.14 | 1.13 | 39 | 1002.6 |
| 20260504201605 | 84 | 259 | 3.0 | 9.0 | 0.14 | 2.14 | 1.13 | 39 | 1002.6 |
| 20260504201529 | 84 | 271 | 3.0 | 9.0 | 0.14 | 2.14 | 1.13 | 40 | 1002.6 |
| 20260504201407 | 84 | 98 | 4.0 | 9.0 | 0.14 | 2.14 | 1.13 | 40 | 1002.6 |
| 20260504201302 | 84 | 281 | 4.0 | 9.0 | 0.14 | 2.14 | 1.13 | 39 | 1002.7 |
| 20260504201205 | 84 | 242 | 3.0 | 9.0 | 0.14 | 2.14 | 1.13 | 39 | 1002.6 |
| 20260504201101 | 84 | 35 | 4.0 | 9.0 | 0.14 | 2.14 | 1.13 | 40 | 1002.6 |
| 20260504200956 | 84 | 305 | 4.0 | 9.0 | 0.14 | 2.14 | 1.13 | 39 | 1002.7 |
| 20260504200859 | 84 | 285 | 3.0 | 9.0 | 0.14 | 2.14 | 1.13 | 39 | 1002.7 |
| 20260504200754 | 84 | 329 | 2.0 | 10.0 | 0.14 | 2.14 | 1.13 | 40 | 1002.7 |
| 20260504200722 | 84 | 326 | 3.0 | 10.0 | 0.14 | 2.14 | 1.13 | 40 | 1002.6 |
| 20260504200557 | 84 | 247 | 4.0 | 10.0 | 0.14 | 2.14 | 1.13 | 40 | 1002.6 |
| 20260504200511 | 83 | 189 | 4.0 | 10.0 | 0.14 | 2.14 | 1.13 | 41 | 1002.6 |
| 20260504200415 | 83 | 323 | 4.0 | 10.0 | 0.09 | 2.14 | 1.13 | 41 | 1002.7 |
| 20260504200330 | 83 | 281 | 4.0 | 10.0 | 0.02 | 2.13 | 1.12 | 41 | 1002.7 |
| 20260504200233 | 84 | 241 | 4.0 | 10.0 | 0.02 | 2.13 | 1.12 | 41 | 1002.6 |
| 20260504200129 | 84 | 310 | 5.0 | 10.0 | 0.02 | 2.13 | 1.12 | 40 | 1002.6 |
| 20260504200056 | 83 | 219 | 5.0 | 11.0 | 0.02 | 2.13 | 1.12 | 41 | 1002.7 |
| 20260504200008 | 84 | 250 | 5.0 | 11.0 | 0.02 | 2.13 | 1.12 | 40 | 1002.7 |
| 20260504195905 | 84 | 254 | 3.0 | 11.0 | 0.02 | 2.14 | 1.12 | 40 | 1002.7 |
| 20260504195809 | 84 | 154 | 3.0 | 11.0 | 0.02 | 2.14 | 1.12 | 41 | 1002.7 |
| 20260504195704 | 84 | 270 | 4.0 | 11.0 | 0.02 | 2.14 | 1.12 | 40 | 1002.6 |
| 20260504195559 | 84 | 225 | 3.0 | 11.0 | 0.02 | 2.14 | 1.12 | 40 | 1002.7 |
| 20260504195524 | 83 | 243 | 3.0 | 11.0 | 0.02 | 2.14 | 1.12 | 40 | 1002.7 |
| 20260504195357 | 83 | 314 | 4.0 | 11.0 | 0.02 | 2.14 | 1.12 | 39 | 1002.7 |
| 20260504195321 | 83 | 270 | 5.0 | 11.0 | 0.02 | 2.14 | 1.12 | 40 | 1002.7 |
| 20260504195219 | 83 | 145 | 4.0 | 11.0 | 0.02 | 2.14 | 1.12 | 41 | 1002.7 |
| 20260504195102 | 83 | 238 | 2.0 | 10.0 | 0.02 | 2.14 | 1.12 | 41 | 1002.7 |
| 20260504194956 | 83 | 311 | 2.0 | 11.0 | 0.02 | 2.14 | 1.12 | 39 | 1002.6 |
| 20260504194920 | 83 | 132 | 3.0 | 11.0 | 0.02 | 2.14 | 1.12 | 39 | 1002.7 |
| 20260504194756 | 83 | 134 | 4.0 | 11.0 | 0.02 | 2.14 | 1.12 | 40 | 1002.7 |
| 20260504194709 | 83 | 160 | 5.0 | 11.0 | 0.02 | 2.14 | 1.12 | 40 | 1002.7 |
| 20260504194614 | 82 | 209 | 5.0 | 11.0 | 0.02 | 2.14 | 1.12 | 40 | 1002.8 |
| 20260504194603 | 83 | 280 | 5.0 | 11.0 | 0.02 | 2.14 | 1.12 | 40 | 1002.8 |
| 20260504194511 | 83 | 160 | 4.0 | 11.0 | 0.02 | 2.14 | 1.12 | 40 | 1002.8 |
| 20260504194405 | 83 | 338 | 4.0 | 11.0 | 0.02 | 2.14 | 1.12 | 40 | 1002.8 |
| 20260504194259 | 83 | 272 | 6.0 | 11.0 | 0.02 | 2.14 | 1.12 | 39 | 1002.8 |
| 20260504194203 | 83 | 228 | 5.0 | 11.0 | 0.02 | 2.14 | 1.12 | 39 | 1002.7 |
| 20260504194058 | 83 | 279 | 4.0 | 10.0 | 0.02 | 2.14 | 1.12 | 42 | 1002.7 |
| 20260504194023 | 83 | 258 | 3.0 | 12.0 | 0.02 | 2.14 | 1.12 | 43 | 1002.7 |
| 20260504193857 | 83 | 188 | 3.0 | 12.0 | 0.02 | 2.14 | 1.12 | 41 | 1002.7 |
| 20260504193756 | 82 | 234 | 5.0 | 12.0 | 0.02 | 2.14 | 1.12 | 40 | 1002.7 |
| 20260504193720 | 82 | 256 | 5.0 | 12.0 | 0.02 | 2.14 | 1.12 | 41 | 1002.7 |
| 20260504193554 | 82 | 330 | 5.0 | 12.0 | 0.02 | 2.14 | 1.12 | 41 | 1002.7 |
| 20260504193518 | 82 | 287 | 6.0 | 12.0 | 0.02 | 2.14 | 1.12 | 40 | 1002.7 |
| 20260504193413 | 83 | 281 | 5.0 | 12.0 | 0.02 | 2.14 | 1.12 | 41 | 1002.7 |
| 20260504193308 | 83 | 235 | 5.0 | 12.0 | 0.00 | 2.14 | 1.12 | 41 | 1002.7 |
| 20260504193212 | 83 | 322 | 4.0 | 12.0 | 0.00 | 2.14 | 1.12 | 41 | 1002.7 |
| 20260504193111 | 83 | 277 | 4.0 | 12.0 | 0.00 | 2.14 | 1.12 | 41 | 1002.7 |
| 20260504193022 | 82 | 274 | 4.0 | 12.0 | 0.00 | 2.14 | 1.12 | 39 | 1002.7 |
| 20260504193008 | 83 | 294 | 4.0 | 12.0 | 0.00 | 2.14 | 1.12 | 39 | 1002.7 |
| 20260504192911 | 83 | 173 | 3.0 | 12.0 | 0.00 | 2.14 | 1.12 | 40 | 1002.7 |
| 20260504192806 | 83 | 163 | 4.0 | 13.0 | 0.00 | 2.14 | 1.12 | 39 | 1002.7 |
| 20260504192730 | 83 | 74 | 7.0 | 13.0 | 0.00 | 2.14 | 1.12 | 38 | 1002.8 |
| 20260504192604 | 84 | 293 | 5.0 | 13.0 | 0.00 | 2.14 | 1.12 | 40 | 1002.7 |
| 20260504192459 | 84 | 266 | 4.0 | 13.0 | 0.00 | 2.14 | 1.12 | 40 | 1002.8 |
| 20260504192407 | 84 | 231 | 4.0 | 13.0 | 0.00 | 2.14 | 1.12 | 40 | 1002.8 |
| 20260504192304 | 84 | 268 | 5.0 | 13.0 | 0.00 | 2.14 | 1.12 | 40 | 1002.7 |
| 20260504192157 | 84 | 184 | 4.0 | 13.0 | 0.00 | 2.14 | 1.12 | 40 | 1002.8 |
| 20260504192100 | 84 | 136 | 4.0 | 13.0 | 0.00 | 2.14 | 1.12 | 40 | 1002.7 |
| 20260504191955 | 84 | 158 | 4.0 | 13.0 | 0.00 | 2.14 | 1.12 | 40 | 1002.8 |
| 20260504191919 | 84 | 324 | 3.0 | 10.0 | 0.00 | 2.14 | 1.12 | 41 | 1002.7 |
| 20260504191814 | 84 | 19 | 4.0 | 10.0 | 0.00 | 2.14 | 1.12 | 41 | 1002.8 |
| 20260504191718 | 84 | 202 | 3.0 | 10.0 | 0.00 | 2.14 | 1.12 | 41 | 1002.7 |
| 20260504191556 | 83 | 193 | 3.0 | 10.0 | 0.00 | 2.14 | 1.12 | 41 | 1002.7 |
| 20260504191538 | 83 | 351 | 4.0 | 10.0 | 0.00 | 2.14 | 1.12 | 40 | 1002.7 |
| 20260504191511 | 84 | 162 | 5.0 | 10.0 | 0.00 | 2.14 | 1.12 | 40 | 1002.8 |
| 20260504191414 | 84 | 285 | 3.0 | 10.0 | 0.00 | 2.14 | 1.12 | 40 | 1002.8 |
| 20260504191309 | 84 | 219 | 0.0 | 9.0 | 0.00 | 2.14 | 1.12 | 42 | 1002.8 |
| 20260504191204 | 83 | 275 | 1.0 | 9.0 | 0.00 | 2.14 | 1.12 | 41 | 1002.8 |
| 20260504191108 | 83 | 252 | 3.0 | 9.0 | 0.00 | 2.14 | 1.12 | 41 | 1002.8 |
| 20260504191007 | 83 | 292 | 3.0 | 9.0 | 0.00 | 2.14 | 1.12 | 41 | 1002.7 |
| 20260504190931 | 83 | 323 | 3.0 | 9.0 | 0.00 | 2.14 | 1.12 | 41 | 1002.8 |
| 20260504190805 | 83 | 186 | 4.0 | 9.0 | 0.00 | 2.14 | 1.12 | 40 | 1002.9 |
| 20260504190659 | 83 | 143 | 4.0 | 9.0 | 0.00 | 2.14 | 1.12 | 40 | 1002.9 |
| 20260504190603 | 83 | 122 | 2.0 | 9.0 | 0.00 | 2.14 | 1.12 | 41 | 1002.9 |
| 20260504190458 | 83 | 217 | 0.0 | 9.0 | 0.00 | 2.14 | 1.12 | 41 | 1002.9 |
| 20260504190422 | 83 | 295 | 0.0 | 9.0 | 0.00 | 2.14 | 1.12 | 41 | 1002.9 |
| 20260504190301 | 83 | 295 | 0.0 | 9.0 | 0.00 | 2.14 | 1.12 | 42 | 1002.9 |
| 20260504190156 | 83 | 306 | 2.0 | 9.0 | 0.00 | 2.14 | 1.12 | 40 | 1002.9 |
| 20260504190131 | 83 | 231 | 2.0 | 9.0 | 0.00 | 2.14 | 1.12 | 40 | 1002.9 |
| 20260504190044 | 82 | 145 | 3.0 | 9.0 | 0.00 | 2.14 | 1.12 | 41 | 1002.9 |
| 20260504190011 | 83 | 269 | 3.0 | 9.0 | 0.00 | 2.14 | 1.12 | 41 | 1002.9 |
| 20260504185914 | 83 | 158 | 2.0 | 8.0 | 0.00 | 2.14 | 1.12 | 42 | 1002.9 |
| 20260504185808 | 83 | 294 | 3.0 | 8.0 | 0.00 | 2.14 | 1.12 | 42 | 1002.9 |
| 20260504185703 | 83 | 199 | 3.0 | 8.0 | 0.00 | 2.14 | 1.12 | 41 | 1002.9 |
| 20260504185611 | 83 | 218 | 4.0 | 8.0 | 0.00 | 2.14 | 1.12 | 41 | 1003.0 |
| 20260504185506 | 83 | 223 | 3.0 | 8.0 | 0.00 | 2.14 | 1.12 | 41 | 1002.9 |
| 20260504185400 | 83 | 231 | 2.0 | 7.0 | 0.00 | 2.14 | 1.12 | 43 | 1003.0 |
| 20260504185255 | 82 | 136 | 3.0 | 8.0 | 0.00 | 2.14 | 1.12 | 41 | 1002.9 |
| 20260504185159 | 82 | 208 | 4.0 | 8.0 | 0.00 | 2.14 | 1.12 | 41 | 1002.8 |
| 20260504185055 | 82 | 226 | 3.0 | 8.0 | 0.00 | 2.14 | 1.12 | 41 | 1003.0 |
| 20260504185019 | 82 | 163 | 3.0 | 8.0 | 0.00 | 2.14 | 1.12 | 41 | 1003.0 |
| 20260504184858 | 82 | 273 | 5.0 | 8.0 | 0.00 | 2.14 | 1.12 | 41 | 1002.9 |
| 20260504184823 | 82 | 238 | 4.0 | 8.0 | 0.00 | 2.14 | 1.12 | 41 | 1003.0 |
| 20260504184716 | 82 | 174 | 3.0 | 8.0 | 0.00 | 2.14 | 1.12 | 42 | 1003.0 |
| 20260504184619 | 82 | 227 | 3.0 | 8.0 | 0.00 | 2.14 | 1.12 | 42 | 1002.9 |
| 20260504184616 | 82 | 229 | 2.0 | 8.0 | 0.00 | 2.14 | 1.12 | 42 | 1002.9 |
| 20260504184513 | 82 | 281 | 3.0 | 8.0 | 0.00 | 2.14 | 1.12 | 42 | 1003.0 |
| 20260504184408 | 82 | 247 | 3.0 | 8.0 | 0.00 | 2.14 | 1.12 | 41 | 1002.9 |
| 20260504184303 | 82 | 148 | 3.0 | 11.0 | 0.00 | 2.14 | 1.12 | 40 | 1002.9 |
| 20260504184211 | 82 | 250 | 3.0 | 11.0 | 0.00 | 2.14 | 1.12 | 40 | 1003.0 |
| 20260504184106 | 82 | 197 | 2.0 | 11.0 | 0.00 | 2.14 | 1.12 | 41 | 1003.0 |
| 20260504184011 | 82 | 54 | 1.0 | 11.0 | 0.00 | 2.14 | 1.12 | 42 | 1003.0 |
| 20260504183925 | 82 | 139 | 2.0 | 11.0 | 0.00 | 2.14 | 1.12 | 42 | 1003.0 |
| 20260504183758 | 81 | 226 | 3.0 | 11.0 | 0.00 | 2.14 | 1.12 | 42 | 1003.0 |
| 20260504183722 | 81 | 140 | 4.0 | 11.0 | 0.00 | 2.14 | 1.12 | 42 | 1003.0 |
| 20260504183556 | 81 | 141 | 4.0 | 11.0 | 0.00 | 2.14 | 1.12 | 41 | 1003.0 |
| 20260504183500 | 81 | 185 | 4.0 | 11.0 | 0.00 | 2.14 | 1.12 | 41 | 1003.1 |
| 20260504183359 | 81 | 250 | 4.0 | 11.0 | 0.00 | 2.14 | 1.12 | 42 | 1003.0 |
| 20260504183254 | 81 | 301 | 3.0 | 11.0 | 0.00 | 2.14 | 1.12 | 42 | 1003.0 |
| 20260504183157 | 81 | 229 | 3.0 | 11.0 | 0.00 | 2.14 | 1.12 | 44 | 1003.1 |
| 20260504183125 | 80 | 255 | 3.0 | 11.0 | 0.00 | 2.14 | 1.12 | 42 | 1003.0 |
| 20260504183113 | 81 | 274 | 4.0 | 11.0 | 0.00 | 2.14 | 1.12 | 42 | 1003.1 |
| 20260504183018 | 81 | 212 | 4.0 | 11.0 | 0.00 | 2.14 | 1.12 | 42 | 1003.1 |
| 20260504182931 | 80 | 236 | 5.0 | 11.0 | 0.00 | 2.14 | 1.12 | 42 | 1003.2 |
| 20260504182814 | 80 | 246 | 5.0 | 11.0 | 0.00 | 2.14 | 1.12 | 42 | 1003.1 |
| 20260504182713 | 80 | 194 | 5.0 | 11.0 | 0.00 | 2.14 | 1.12 | 42 | 1003.1 |
| 20260504182608 | 81 | 195 | 6.0 | 11.0 | 0.00 | 2.14 | 1.12 | 41 | 1003.1 |
| 20260504182511 | 81 | 223 | 5.0 | 11.0 | 0.00 | 2.14 | 1.12 | 41 | 1003.1 |
| 20260504182426 | 81 | 242 | 3.0 | 11.0 | 0.00 | 2.14 | 1.12 | 42 | 1003.2 |
| 20260504182309 | 81 | 239 | 5.0 | 11.0 | 0.00 | 2.14 | 1.12 | 41 | 1003.2 |
| 20260504182204 | 81 | 304 | 5.0 | 11.0 | 0.00 | 2.14 | 1.12 | 42 | 1003.2 |
| 20260504182059 | 81 | 230 | 4.0 | 11.0 | 0.00 | 2.14 | 1.12 | 41 | 1003.1 |
| 20260504182007 | 81 | 248 | 3.0 | 11.0 | 0.00 | 2.14 | 1.12 | 41 | 1003.2 |
| 20260504181901 | 81 | 121 | 4.0 | 11.0 | 0.00 | 2.14 | 1.12 | 40 | 1003.2 |
| 20260504181804 | 81 | 208 | 6.0 | 11.0 | 0.00 | 2.14 | 1.12 | 41 | 1003.2 |
| 20260504181700 | 81 | 263 | 4.0 | 11.0 | 0.00 | 2.14 | 1.12 | 42 | 1003.2 |
| 20260504181612 | 80 | 259 | 3.0 | 10.0 | 0.00 | 2.14 | 1.12 | 43 | 1003.1 |
| 20260504181555 | 81 | 243 | 4.0 | 10.0 | 0.00 | 2.14 | 1.12 | 42 | 1003.1 |
| 20260504181459 | 81 | 336 | 3.0 | 10.0 | 0.00 | 2.14 | 1.12 | 42 | 1003.1 |
| 20260504181354 | 81 | 304 | 3.0 | 10.0 | 0.00 | 2.14 | 1.12 | 41 | 1003.1 |
| 20260504181318 | 81 | 265 | 2.0 | 10.0 | 0.00 | 2.14 | 1.12 | 41 | 1003.2 |
| 20260504181156 | 81 | 333 | 1.0 | 10.0 | 0.00 | 2.14 | 1.12 | 43 | 1003.2 |
| 20260504181111 | 81 | 229 | 3.0 | 10.0 | 0.00 | 2.14 | 1.12 | 43 | 1003.2 |
| 20260504181015 | 80 | 167 | 5.0 | 10.0 | 0.00 | 2.14 | 1.12 | 42 | 1003.3 |
| 20260504180908 | 80 | 217 | 4.0 | 8.0 | 0.00 | 2.14 | 1.12 | 42 | 1003.3 |
| 20260504180811 | 80 | 298 | 3.0 | 8.0 | 0.00 | 2.14 | 1.12 | 42 | 1003.3 |
| 20260504180725 | 80 | 263 | 3.0 | 8.0 | 0.00 | 2.14 | 1.12 | 41 | 1003.3 |
| 20260504180609 | 80 | 255 | 3.0 | 8.0 | 0.00 | 2.14 | 1.12 | 42 | 1003.3 |
| 20260504180508 | 80 | 301 | 4.0 | 8.0 | 0.00 | 2.14 | 1.12 | 42 | 1003.4 |
| 20260504180402 | 80 | 253 | 4.0 | 8.0 | 0.00 | 2.14 | 1.12 | 41 | 1003.4 |
| 20260504180306 | 80 | 163 | 3.0 | 8.0 | 0.00 | 2.14 | 1.12 | 43 | 1003.4 |
| 20260504180201 | 80 | 261 | 3.0 | 8.0 | 0.00 | 2.14 | 1.12 | 43 | 1003.5 |
| 20260504180137 | 80 | 207 | 4.0 | 8.0 | 0.00 | 2.14 | 1.12 | 43 | 1003.5 |
| 20260504180045 | 79 | 191 | 4.0 | 8.0 | 0.00 | 2.14 | 1.12 | 42 | 1003.3 |
| 20260504175956 | 80 | 245 | 5.0 | 8.0 | 0.00 | 2.14 | 1.12 | 42 | 1003.5 |
| 20260504175908 | 80 | 249 | 4.0 | 8.0 | 0.00 | 2.14 | 1.12 | 42 | 1003.4 |
| 20260504175816 | 80 | 268 | 4.0 | 8.0 | 0.00 | 2.14 | 1.12 | 42 | 1003.3 |
| 20260504175711 | 80 | 179 | 3.0 | 8.0 | 0.00 | 2.14 | 1.12 | 42 | 1003.3 |
| 20260504175635 | 80 | 221 | 3.0 | 8.0 | 0.00 | 2.14 | 1.12 | 43 | 1003.4 |
| 20260504175509 | 80 | 241 | 2.0 | 9.0 | 0.00 | 2.14 | 1.12 | 42 | 1003.4 |
| 20260504175404 | 80 | 118 | 3.0 | 10.0 | 0.00 | 2.14 | 1.12 | 43 | 1003.4 |
| 20260504175328 | 79 | 288 | 3.0 | 10.0 | 0.00 | 2.14 | 1.12 | 43 | 1003.5 |
| 20260504175222 | 79 | 298 | 3.0 | 12.0 | 0.00 | 2.14 | 1.12 | 43 | 1003.4 |
| 20260504175056 | 79 | 203 | 2.0 | 12.0 | 0.00 | 2.14 | 1.12 | 43 | 1003.4 |
| 20260504174955 | 79 | 218 | 2.0 | 12.0 | 0.00 | 2.14 | 1.12 | 42 | 1003.4 |
| 20260504174920 | 79 | 318 | 3.0 | 12.0 | 0.00 | 2.14 | 1.12 | 43 | 1003.4 |
| 20260504174814 | 79 | 288 | 4.0 | 12.0 | 0.00 | 2.14 | 1.12 | 43 | 1003.5 |
| 20260504174717 | 79 | 186 | 5.0 | 12.0 | 0.00 | 2.14 | 1.12 | 43 | 1003.5 |
| 20260504174612 | 79 | 296 | 6.0 | 12.0 | 0.00 | 2.14 | 1.12 | 43 | 1003.6 |
| 20260504174522 | 79 | 251 | 6.0 | 12.0 | 0.00 | 2.14 | 1.12 | 43 | 1003.5 |
| 20260504174507 | 79 | 284 | 6.0 | 12.0 | 0.00 | 2.14 | 1.12 | 43 | 1003.5 |
| 20260504174411 | 79 | 266 | 3.0 | 12.0 | 0.00 | 2.14 | 1.12 | 44 | 1003.5 |
| 20260504174311 | 79 | 266 | 0.0 | 10.0 | 0.00 | 2.14 | 1.12 | 44 | 1003.4 |
| 20260504174205 | 79 | 62 | 2.0 | 10.0 | 0.00 | 2.14 | 1.12 | 44 | 1003.5 |
| 20260504174109 | 79 | 200 | 5.0 | 10.0 | 0.00 | 2.14 | 1.12 | 44 | 1003.5 |
| 20260504174004 | 79 | 250 | 6.0 | 10.0 | 0.00 | 2.14 | 1.12 | 43 | 1003.5 |
| 20260504173859 | 79 | 273 | 5.0 | 10.0 | 0.00 | 2.14 | 1.12 | 44 | 1003.6 |
| 20260504173803 | 79 | 300 | 4.0 | 10.0 | 0.00 | 2.14 | 1.12 | 44 | 1003.6 |
| 20260504173658 | 79 | 161 | 3.0 | 10.0 | 0.00 | 2.14 | 1.12 | 43 | 1003.5 |
| 20260504173626 | 79 | 198 | 4.0 | 10.0 | 0.00 | 2.14 | 1.12 | 43 | 1003.6 |
| 20260504173500 | 79 | 245 | 5.0 | 10.0 | 0.00 | 2.14 | 1.12 | 43 | 1003.6 |
| 20260504173355 | 79 | 211 | 4.0 | 11.0 | 0.00 | 2.14 | 1.12 | 43 | 1003.6 |
| 20260504173258 | 79 | 172 | 2.0 | 11.0 | 0.00 | 2.14 | 1.12 | 43 | 1003.6 |
| 20260504173153 | 79 | 288 | 2.0 | 11.0 | 0.00 | 2.14 | 1.12 | 43 | 1003.6 |
| 20260504173117 | 79 | 143 | 1.0 | 11.0 | 0.00 | 2.14 | 1.12 | 43 | 1003.6 |
| 20260504173055 | 79 | 328 | 0.0 | 11.0 | 0.00 | 2.14 | 1.12 | 43 | 1003.6 |
| 20260504172954 | 79 | 247 | 1.0 | 11.0 | 0.00 | 2.14 | 1.12 | 43 | 1003.6 |
| 20260504172912 | 79 | 231 | 3.0 | 11.0 | 0.00 | 2.14 | 1.12 | 43 | 1003.6 |
| 20260504172816 | 79 | 158 | 4.0 | 11.0 | 0.00 | 2.14 | 1.12 | 43 | 1003.6 |
| 20260504172711 | 79 | 278 | 4.0 | 11.0 | 0.00 | 2.14 | 1.12 | 43 | 1003.6 |
| 20260504172635 | 79 | 274 | 5.0 | 11.0 | 0.00 | 2.14 | 1.12 | 43 | 1003.6 |
| 20260504172509 | 79 | 244 | 5.0 | 11.0 | 0.00 | 2.14 | 1.12 | 42 | 1003.7 |
| 20260504172433 | 80 | 307 | 2.0 | 10.0 | 0.00 | 2.14 | 1.12 | 43 | 1003.6 |
| 20260504172307 | 79 | 94 | 1.0 | 10.0 | 0.00 | 2.14 | 1.12 | 44 | 1003.6 |
| 20260504172209 | 79 | 256 | 2.0 | 10.0 | 0.00 | 2.14 | 1.12 | 44 | 1003.5 |
| 20260504172108 | 79 | 273 | 4.0 | 10.0 | 0.00 | 2.14 | 1.12 | 43 | 1003.6 |
| 20260504172003 | 79 | 260 | 5.0 | 10.0 | 0.00 | 2.14 | 1.12 | 43 | 1003.5 |
| 20260504171907 | 79 | 315 | 2.0 | 10.0 | 0.00 | 2.14 | 1.12 | 44 | 1003.5 |
| 20260504171802 | 79 | 266 | 1.0 | 10.0 | 0.00 | 2.14 | 1.12 | 44 | 1003.5 |
| 20260504171657 | 79 | 130 | 4.0 | 12.0 | 0.00 | 2.14 | 1.12 | 45 | 1003.5 |
| 20260504171621 | 78 | 199 | 4.0 | 12.0 | 0.00 | 2.14 | 1.12 | 44 | 1003.5 |
| 20260504171517 | 78 | 175 | 3.0 | 12.0 | 0.00 | 2.14 | 1.12 | 44 | 1003.6 |
| 20260504171455 | 78 | 195 | 4.0 | 12.0 | 0.00 | 2.14 | 1.12 | 44 | 1003.6 |
| 20260504171403 | 78 | 115 | 3.0 | 12.0 | 0.00 | 2.14 | 1.12 | 45 | 1003.6 |
| 20260504171258 | 78 | 308 | 3.0 | 12.0 | 0.00 | 2.14 | 1.12 | 45 | 1003.6 |
| 20260504171221 | 78 | 206 | 4.0 | 12.0 | 0.00 | 2.14 | 1.12 | 44 | 1003.7 |
| 20260504171056 | 78 | 271 | 4.0 | 12.0 | 0.00 | 2.14 | 1.12 | 44 | 1003.6 |
| 20260504171011 | 78 | 253 | 4.0 | 12.0 | 0.00 | 2.14 | 1.12 | 45 | 1003.7 |
| 20260504170915 | 78 | 176 | 5.0 | 12.0 | 0.00 | 2.14 | 1.12 | 43 | 1003.6 |
| 20260504170810 | 78 | 304 | 5.0 | 12.0 | 0.00 | 2.14 | 1.12 | 45 | 1003.6 |
| 20260504170734 | 78 | 293 | 4.0 | 11.0 | 0.00 | 2.14 | 1.12 | 44 | 1003.6 |
| 20260504170612 | 78 | 223 | 4.0 | 11.0 | 0.00 | 2.14 | 1.12 | 46 | 1003.6 |
| 20260504170514 | 78 | 297 | 5.0 | 11.0 | 0.00 | 2.14 | 1.12 | 45 | 1003.6 |
| 20260504170409 | 78 | 303 | 5.0 | 10.0 | 0.00 | 2.14 | 1.12 | 46 | 1003.6 |
| 20260504170304 | 78 | 287 | 3.0 | 10.0 | 0.00 | 2.14 | 1.12 | 46 | 1003.5 |
| 20260504170208 | 78 | 130 | 2.0 | 8.0 | 0.00 | 2.14 | 1.12 | 47 | 1003.5 |
| 20260504170147 | 77 | 269 | 1.0 | 8.0 | 0.00 | 2.14 | 1.12 | 46 | 1003.5 |
| 20260504170113 | 77 | 251 | 2.0 | 12.0 | 0.00 | 2.14 | 1.12 | 46 | 1003.6 |
| 20260504160421 | 75 | 155 | 2.0 | 14.0 | 0.00 | 2.14 | 1.12 | 49 | 1003.8 |
| 20260504160254 | 75 | 281 | 4.0 | 14.0 | 0.00 | 2.14 | 1.12 | 48 | 1003.8 |
| 20260504160209 | 75 | 256 | 4.0 | 14.0 | 0.00 | 2.14 | 1.12 | 48 | 1003.9 |
| 20260504160123 | 75 | 301 | 4.0 | 14.0 | 0.00 | 2.14 | 1.12 | 48 | 1003.8 |
| 20260504151053 | 71 | 116 | 3.0 | 11.0 | 1.12 | 2.68 | 1.12 | 51 | 1004.1 |
| 20260504151008 | 72 | 285 | 4.0 | 11.0 | 1.12 | 2.68 | 1.12 | 51 | 1004.1 |
| 20260504150911 | 72 | 264 | 4.0 | 11.0 | 1.12 | 2.68 | 1.12 | 52 | 1004.1 |
| 20260504150807 | 71 | 266 | 4.0 | 11.0 | 1.12 | 2.68 | 1.12 | 52 | 1004.1 |
| 20260504150702 | 71 | 344 | 3.0 | 10.0 | 1.12 | 2.68 | 1.12 | 52 | 1004.1 |
| 20260504150610 | 71 | 175 | 2.0 | 10.0 | 1.12 | 2.68 | 1.12 | 52 | 1004.2 |
| 20260504150505 | 71 | 229 | 3.0 | 10.0 | 1.12 | 2.68 | 1.12 | 52 | 1004.1 |
| 20260504150429 | 71 | 216 | 3.0 | 11.0 | 1.12 | 2.68 | 1.12 | 51 | 1004.1 |
| 20260504150302 | 71 | 241 | 2.0 | 11.0 | 1.12 | 2.68 | 1.12 | 52 | 1004.1 |
| 20260504150158 | 71 | 291 | 4.0 | 11.0 | 1.12 | 2.68 | 1.12 | 52 | 1004.0 |
| 20260504150114 | 71 | 184 | 5.0 | 11.0 | 1.12 | 2.68 | 1.12 | 52 | 1004.1 |
| 20260504141317 | 70 | 205 | 6.0 | 12.0 | 0.00 | 1.77 | 0.00 | 53 | 1004.3 |
| 20260504141153 | 70 | 225 | 3.0 | 12.0 | 0.00 | 1.77 | 0.00 | 54 | 1004.2 |
| 20260504141106 | 69 | 146 | 2.0 | 9.0 | 0.00 | 1.77 | 0.00 | 55 | 1004.3 |
| 20260504141011 | 69 | 281 | 3.0 | 9.0 | 0.00 | 1.77 | 0.00 | 54 | 1004.3 |
| 20260504140905 | 69 | 281 | 3.0 | 9.0 | 0.00 | 1.77 | 0.00 | 55 | 1004.3 |
| 20260504140800 | 69 | 109 | 1.0 | 9.0 | 0.00 | 1.77 | 0.00 | 55 | 1004.2 |
| 20260504140708 | 69 | 186 | 0.0 | 9.0 | 0.00 | 1.77 | 0.00 | 55 | 1004.2 |
| 20260504140603 | 69 | 281 | 0.0 | 9.0 | 0.00 | 1.77 | 0.00 | 54 | 1004.2 |
| 20260504140458 | 69 | 134 | 1.0 | 9.0 | 0.00 | 1.77 | 0.00 | 55 | 1004.2 |
| 20260504140353 | 69 | 252 | 2.0 | 9.0 | 0.00 | 1.77 | 0.00 | 55 | 1004.2 |
| 20260504140317 | 69 | 156 | 1.0 | 7.0 | 0.00 | 1.77 | 0.00 | 55 | 1004.3 |
| 20260504140242 | 68 | 158 | 1.0 | 7.0 | 0.00 | 1.77 | 0.00 | 56 | 1004.3 |
| 20260504140146 | 68 | 65 | 0.0 | 7.0 | 0.00 | 1.77 | 0.00 | 56 | 1004.3 |
| 20260504140125 | 68 | 249 | 1.0 | 7.0 | 0.00 | 1.77 | 0.00 | 56 | 1004.3 |
| 20260504130753 | 66 | 296 | 0.0 | 10.0 | 0.00 | 1.77 | 0.00 | 58 | 1004.1 |
| 20260504130702 | 66 | 224 | 1.0 | 10.0 | 0.00 | 1.77 | 0.00 | 58 | 1004.1 |
| 20260504130556 | 66 | 226 | 1.0 | 10.0 | 0.00 | 1.77 | 0.00 | 58 | 1004.0 |
| 20260504130500 | 66 | 304 | 1.0 | 7.0 | 0.00 | 1.77 | 0.00 | 58 | 1004.0 |
| 20260504130354 | 65 | 262 | 2.0 | 7.0 | 0.00 | 1.77 | 0.00 | 58 | 1004.0 |
| 20260504130307 | 65 | 66 | 2.0 | 7.0 | 0.00 | 1.77 | 0.00 | 58 | 1004.1 |
| 20260504130211 | 65 | 291 | 2.0 | 6.0 | 0.00 | 1.77 | 0.00 | 59 | 1004.1 |
| 20260504130138 | 65 | 233 | 1.0 | 6.0 | 0.00 | 1.77 | 0.00 | 59 | 1004.1 |
| 20260504130117 | 65 | 182 | 1.0 | 6.0 | 0.00 | 1.77 | 0.00 | 59 | 1004.1 |
| 20260504120253 | 60 | 292 | 0.0 | 0.0 | 0.00 | 1.77 | 0.00 | 66 | 1004.1 |
| 20260504120217 | 60 | 292 | 0.0 | 0.0 | 0.00 | 1.77 | 0.00 | 66 | 1004.1 |
| 20260504120153 | 59 | 292 | 0.0 | 0.0 | 0.00 | 1.77 | 0.00 | 66 | 1004.1 |
| 20260504120123 | 60 | 221 | 0.0 | 0.0 | 0.00 | 1.77 | 0.00 | 66 | 1004.1 |